<?xml version="1.0" encoding="UTF-8" standalone="no" ?>
<gpx xmlns="http://www.topografix.com/GPX/1/1" xmlns:xsi="http://www.w3.org/2001/XMLSchema-instance" xsi:schemaLocation="http://www.topografix.com/GPX/1/1 http://www.topografix.com/GPX/1/1/gpx.xsd" version="1.1" creator="VisuGPX - https://www.visugpx.com">
  <metadata>
    <name>Baigorri Sarastegi Lepoa  descente par cc Trail n3</name>
    <desc><![CDATA[Circuit au départ de Legatzeko Borda, remontant la piste de Sarastegi Lepoa  avec un retour en suivant le circuit du trail n°3.
Intéressant, mais à faire avec des températures correctes, et en se dotant d'une réserve d'eau suffisante .
Possibilité de durcir le circuit (déjà dur)  en démarrant du bourg, et arrivé au col, en montant au col d'Astate pour gravir Astate ou Buztanzelhai . Possibilité de le diminuer en reprenant le circuit de retour au point 609m, sans aller au col.

[url=https://gb-rando.blogspot.com/2026/09/baigorri-sarastegi-lepoa-desc-trail3.html]voir rando[/url]


]]></desc>
  </metadata>
  <trk>
    <name><![CDATA[SARASTEGI LEPOA]]></name>
    <trkseg>
      <trkpt lat="43.19359" lon="-1.3493">
        <ele>255.53</ele>
        <time>2026-09-02T06:27:10Z</time>
      </trkpt>
      <trkpt lat="43.19358" lon="-1.34931">
        <ele>255.53</ele>
        <time>2026-09-02T06:27:11Z</time>
      </trkpt>
      <trkpt lat="43.19357" lon="-1.34934">
        <ele>254.26</ele>
        <time>2026-09-02T06:27:16Z</time>
      </trkpt>
      <trkpt lat="43.19358" lon="-1.34938">
        <ele>254.72</ele>
        <time>2026-09-02T06:27:38Z</time>
      </trkpt>
      <trkpt lat="43.19356" lon="-1.34941">
        <ele>254.77</ele>
        <time>2026-09-02T06:28:01Z</time>
      </trkpt>
      <trkpt lat="43.19355" lon="-1.34932">
        <ele>254.64</ele>
        <time>2026-09-02T06:28:31Z</time>
      </trkpt>
      <trkpt lat="43.19358" lon="-1.34934">
        <ele>254.45</ele>
        <time>2026-09-02T06:29:03Z</time>
      </trkpt>
      <trkpt lat="43.19355" lon="-1.34929">
        <ele>254.26</ele>
        <time>2026-09-02T06:29:25Z</time>
      </trkpt>
      <trkpt lat="43.19357" lon="-1.34938">
        <ele>254.64</ele>
        <time>2026-09-02T06:29:51Z</time>
      </trkpt>
      <trkpt lat="43.19354" lon="-1.34936">
        <ele>254.22</ele>
        <time>2026-09-02T06:30:20Z</time>
      </trkpt>
      <trkpt lat="43.19369" lon="-1.3493">
        <ele>253.42</ele>
        <time>2026-09-02T06:30:41Z</time>
      </trkpt>
      <trkpt lat="43.19379" lon="-1.34925">
        <ele>253.26</ele>
        <time>2026-09-02T06:30:53Z</time>
      </trkpt>
      <trkpt lat="43.19389" lon="-1.34914">
        <ele>253.82</ele>
        <time>2026-09-02T06:31:07Z</time>
      </trkpt>
      <trkpt lat="43.19396" lon="-1.34904">
        <ele>255.14</ele>
        <time>2026-09-02T06:31:19Z</time>
      </trkpt>
      <trkpt lat="43.19401" lon="-1.3489">
        <ele>255.8</ele>
        <time>2026-09-02T06:31:28Z</time>
      </trkpt>
      <trkpt lat="43.19404" lon="-1.34871">
        <ele>257.2</ele>
        <time>2026-09-02T06:31:44Z</time>
      </trkpt>
      <trkpt lat="43.19405" lon="-1.34855">
        <ele>257.29</ele>
        <time>2026-09-02T06:32:01Z</time>
      </trkpt>
      <trkpt lat="43.19409" lon="-1.34841">
        <ele>258.22</ele>
        <time>2026-09-02T06:32:14Z</time>
      </trkpt>
      <trkpt lat="43.1941" lon="-1.34839">
        <ele>258.18</ele>
        <time>2026-09-02T06:32:15Z</time>
      </trkpt>
      <trkpt lat="43.19417" lon="-1.34802">
        <ele>257.06</ele>
        <time>2026-09-02T06:32:40Z</time>
      </trkpt>
      <trkpt lat="43.19425" lon="-1.34774">
        <ele>254.27</ele>
        <time>2026-09-02T06:33:02Z</time>
      </trkpt>
      <trkpt lat="43.1943" lon="-1.3476">
        <ele>252.83</ele>
        <time>2026-09-02T06:33:14Z</time>
      </trkpt>
      <trkpt lat="43.19436" lon="-1.34745">
        <ele>250.91</ele>
        <time>2026-09-02T06:33:26Z</time>
      </trkpt>
      <trkpt lat="43.19439" lon="-1.34739">
        <ele>249.99</ele>
        <time>2026-09-02T06:33:33Z</time>
      </trkpt>
      <trkpt lat="43.19442" lon="-1.34725">
        <ele>249.12</ele>
        <time>2026-09-02T06:33:40Z</time>
      </trkpt>
      <trkpt lat="43.19446" lon="-1.34712">
        <ele>247.89</ele>
        <time>2026-09-02T06:33:50Z</time>
      </trkpt>
      <trkpt lat="43.19451" lon="-1.34697">
        <ele>246.1</ele>
        <time>2026-09-02T06:34:01Z</time>
      </trkpt>
      <trkpt lat="43.19455" lon="-1.34686">
        <ele>244.21</ele>
        <time>2026-09-02T06:34:12Z</time>
      </trkpt>
      <trkpt lat="43.1946" lon="-1.34665">
        <ele>241.09</ele>
        <time>2026-09-02T06:34:30Z</time>
      </trkpt>
      <trkpt lat="43.19461" lon="-1.3465">
        <ele>238.97</ele>
        <time>2026-09-02T06:34:42Z</time>
      </trkpt>
      <trkpt lat="43.19462" lon="-1.34637">
        <ele>235.73</ele>
        <time>2026-09-02T06:34:57Z</time>
      </trkpt>
      <trkpt lat="43.19467" lon="-1.3462">
        <ele>233.4</ele>
        <time>2026-09-02T06:35:12Z</time>
      </trkpt>
      <trkpt lat="43.1947" lon="-1.3461">
        <ele>232.2</ele>
        <time>2026-09-02T06:35:19Z</time>
      </trkpt>
      <trkpt lat="43.19474" lon="-1.34605">
        <ele>232.15</ele>
        <time>2026-09-02T06:35:23Z</time>
      </trkpt>
      <trkpt lat="43.19476" lon="-1.34603">
        <ele>231.55</ele>
        <time>2026-09-02T06:35:26Z</time>
      </trkpt>
      <trkpt lat="43.19489" lon="-1.34592">
        <ele>229.72</ele>
        <time>2026-09-02T06:35:42Z</time>
      </trkpt>
      <trkpt lat="43.19502" lon="-1.34589">
        <ele>227.9</ele>
        <time>2026-09-02T06:35:55Z</time>
      </trkpt>
      <trkpt lat="43.19513" lon="-1.3458">
        <ele>225.78</ele>
        <time>2026-09-02T06:36:08Z</time>
      </trkpt>
      <trkpt lat="43.19516" lon="-1.34578">
        <ele>225.55</ele>
        <time>2026-09-02T06:36:11Z</time>
      </trkpt>
      <trkpt lat="43.19519" lon="-1.34572">
        <ele>224.9</ele>
        <time>2026-09-02T06:36:15Z</time>
      </trkpt>
      <trkpt lat="43.19521" lon="-1.34569">
        <ele>224.8</ele>
        <time>2026-09-02T06:36:18Z</time>
      </trkpt>
      <trkpt lat="43.19522" lon="-1.34567">
        <ele>224.56</ele>
        <time>2026-09-02T06:36:21Z</time>
      </trkpt>
      <trkpt lat="43.19524" lon="-1.34562">
        <ele>224.15</ele>
        <time>2026-09-02T06:36:24Z</time>
      </trkpt>
      <trkpt lat="43.19525" lon="-1.34561">
        <ele>223.9</ele>
        <time>2026-09-02T06:36:26Z</time>
      </trkpt>
      <trkpt lat="43.19529" lon="-1.34554">
        <ele>223.65</ele>
        <time>2026-09-02T06:36:32Z</time>
      </trkpt>
      <trkpt lat="43.19536" lon="-1.34544">
        <ele>223.32</ele>
        <time>2026-09-02T06:36:42Z</time>
      </trkpt>
      <trkpt lat="43.19538" lon="-1.3454">
        <ele>223.36</ele>
        <time>2026-09-02T06:36:46Z</time>
      </trkpt>
      <trkpt lat="43.19547" lon="-1.34528">
        <ele>222.66</ele>
        <time>2026-09-02T06:36:58Z</time>
      </trkpt>
      <trkpt lat="43.19558" lon="-1.34516">
        <ele>221.02</ele>
        <time>2026-09-02T06:37:12Z</time>
      </trkpt>
      <trkpt lat="43.19563" lon="-1.34511">
        <ele>219.84</ele>
        <time>2026-09-02T06:37:19Z</time>
      </trkpt>
      <trkpt lat="43.19566" lon="-1.34509">
        <ele>220.1</ele>
        <time>2026-09-02T06:37:21Z</time>
      </trkpt>
      <trkpt lat="43.19571" lon="-1.34506">
        <ele>219.66</ele>
        <time>2026-09-02T06:37:27Z</time>
      </trkpt>
      <trkpt lat="43.19574" lon="-1.34505">
        <ele>219.48</ele>
        <time>2026-09-02T06:37:30Z</time>
      </trkpt>
      <trkpt lat="43.19577" lon="-1.34506">
        <ele>219.17</ele>
        <time>2026-09-02T06:37:33Z</time>
      </trkpt>
      <trkpt lat="43.19584" lon="-1.3451">
        <ele>219.37</ele>
        <time>2026-09-02T06:37:45Z</time>
      </trkpt>
      <trkpt lat="43.19585" lon="-1.3451">
        <ele>219.34</ele>
        <time>2026-09-02T06:37:46Z</time>
      </trkpt>
      <trkpt lat="43.19587" lon="-1.34511">
        <ele>219.63</ele>
        <time>2026-09-02T06:37:48Z</time>
      </trkpt>
      <trkpt lat="43.19599" lon="-1.34519">
        <ele>220.8</ele>
        <time>2026-09-02T06:38:00Z</time>
      </trkpt>
      <trkpt lat="43.19608" lon="-1.34522">
        <ele>222.04</ele>
        <time>2026-09-02T06:38:09Z</time>
      </trkpt>
      <trkpt lat="43.19612" lon="-1.34526">
        <ele>222.51</ele>
        <time>2026-09-02T06:38:13Z</time>
      </trkpt>
      <trkpt lat="43.19621" lon="-1.34532">
        <ele>223.36</ele>
        <time>2026-09-02T06:38:23Z</time>
      </trkpt>
      <trkpt lat="43.19623" lon="-1.34534">
        <ele>223.75</ele>
        <time>2026-09-02T06:38:26Z</time>
      </trkpt>
      <trkpt lat="43.19625" lon="-1.34535">
        <ele>223.72</ele>
        <time>2026-09-02T06:38:28Z</time>
      </trkpt>
      <trkpt lat="43.19629" lon="-1.34538">
        <ele>223.99</ele>
        <time>2026-09-02T06:38:32Z</time>
      </trkpt>
      <trkpt lat="43.1963" lon="-1.34537">
        <ele>224.16</ele>
        <time>2026-09-02T06:38:34Z</time>
      </trkpt>
      <trkpt lat="43.19635" lon="-1.34541">
        <ele>224.48</ele>
        <time>2026-09-02T06:38:37Z</time>
      </trkpt>
      <trkpt lat="43.1964" lon="-1.34545">
        <ele>224.6</ele>
        <time>2026-09-02T06:38:42Z</time>
      </trkpt>
      <trkpt lat="43.19645" lon="-1.34548">
        <ele>224.72</ele>
        <time>2026-09-02T06:38:46Z</time>
      </trkpt>
      <trkpt lat="43.19649" lon="-1.34549">
        <ele>224.89</ele>
        <time>2026-09-02T06:38:50Z</time>
      </trkpt>
      <trkpt lat="43.19652" lon="-1.3455">
        <ele>224.95</ele>
        <time>2026-09-02T06:38:52Z</time>
      </trkpt>
      <trkpt lat="43.1966" lon="-1.3455">
        <ele>225.35</ele>
        <time>2026-09-02T06:39:01Z</time>
      </trkpt>
      <trkpt lat="43.19664" lon="-1.34552">
        <ele>225.83</ele>
        <time>2026-09-02T06:39:04Z</time>
      </trkpt>
      <trkpt lat="43.19669" lon="-1.34552">
        <ele>225.92</ele>
        <time>2026-09-02T06:39:08Z</time>
      </trkpt>
      <trkpt lat="43.19675" lon="-1.34553">
        <ele>226.12</ele>
        <time>2026-09-02T06:39:13Z</time>
      </trkpt>
      <trkpt lat="43.19677" lon="-1.34552">
        <ele>226.53</ele>
        <time>2026-09-02T06:39:15Z</time>
      </trkpt>
      <trkpt lat="43.19679" lon="-1.34552">
        <ele>226.67</ele>
        <time>2026-09-02T06:39:17Z</time>
      </trkpt>
      <trkpt lat="43.19691" lon="-1.34558">
        <ele>227.06</ele>
        <time>2026-09-02T06:39:31Z</time>
      </trkpt>
      <trkpt lat="43.19693" lon="-1.34559">
        <ele>227.17</ele>
        <time>2026-09-02T06:39:35Z</time>
      </trkpt>
      <trkpt lat="43.19695" lon="-1.3456">
        <ele>226.93</ele>
        <time>2026-09-02T06:39:38Z</time>
      </trkpt>
      <trkpt lat="43.19707" lon="-1.34566">
        <ele>226.99</ele>
        <time>2026-09-02T06:39:49Z</time>
      </trkpt>
      <trkpt lat="43.19715" lon="-1.34576">
        <ele>227.58</ele>
        <time>2026-09-02T06:40:03Z</time>
      </trkpt>
      <trkpt lat="43.19724" lon="-1.34577">
        <ele>227.46</ele>
        <time>2026-09-02T06:40:49Z</time>
      </trkpt>
      <trkpt lat="43.19719" lon="-1.34579">
        <ele>226.79</ele>
        <time>2026-09-02T06:41:14Z</time>
      </trkpt>
      <trkpt lat="43.1972" lon="-1.34578">
        <ele>226.38</ele>
        <time>2026-09-02T06:41:37Z</time>
      </trkpt>
      <trkpt lat="43.1972" lon="-1.34574">
        <ele>226.47</ele>
        <time>2026-09-02T06:42:09Z</time>
      </trkpt>
      <trkpt lat="43.19723" lon="-1.34573">
        <ele>226.29</ele>
        <time>2026-09-02T06:42:39Z</time>
      </trkpt>
      <trkpt lat="43.19722" lon="-1.3457">
        <ele>226.25</ele>
        <time>2026-09-02T06:43:20Z</time>
      </trkpt>
      <trkpt lat="43.1972" lon="-1.34572">
        <ele>226.07</ele>
        <time>2026-09-02T06:43:50Z</time>
      </trkpt>
      <trkpt lat="43.1972" lon="-1.34576">
        <ele>226.01</ele>
        <time>2026-09-02T06:44:24Z</time>
      </trkpt>
      <trkpt lat="43.19721" lon="-1.34575">
        <ele>226.03</ele>
        <time>2026-09-02T06:45:01Z</time>
      </trkpt>
      <trkpt lat="43.19717" lon="-1.34574">
        <ele>225.68</ele>
        <time>2026-09-02T06:45:28Z</time>
      </trkpt>
      <trkpt lat="43.19716" lon="-1.34571">
        <ele>225.86</ele>
        <time>2026-09-02T06:45:54Z</time>
      </trkpt>
      <trkpt lat="43.19719" lon="-1.34573">
        <ele>225.75</ele>
        <time>2026-09-02T06:46:23Z</time>
      </trkpt>
      <trkpt lat="43.19717" lon="-1.34573">
        <ele>226.13</ele>
        <time>2026-09-02T06:46:50Z</time>
      </trkpt>
      <trkpt lat="43.19718" lon="-1.34572">
        <ele>225.54</ele>
        <time>2026-09-02T06:47:15Z</time>
      </trkpt>
      <trkpt lat="43.19725" lon="-1.34573">
        <ele>225.81</ele>
        <time>2026-09-02T06:47:42Z</time>
      </trkpt>
      <trkpt lat="43.19734" lon="-1.34579">
        <ele>226.94</ele>
        <time>2026-09-02T06:47:54Z</time>
      </trkpt>
      <trkpt lat="43.19735" lon="-1.3458">
        <ele>227.13</ele>
        <time>2026-09-02T06:47:55Z</time>
      </trkpt>
      <trkpt lat="43.19751" lon="-1.34593">
        <ele>229.92</ele>
        <time>2026-09-02T06:48:15Z</time>
      </trkpt>
      <trkpt lat="43.19766" lon="-1.34603">
        <ele>231.17</ele>
        <time>2026-09-02T06:48:30Z</time>
      </trkpt>
      <trkpt lat="43.19768" lon="-1.34606">
        <ele>231.53</ele>
        <time>2026-09-02T06:48:33Z</time>
      </trkpt>
      <trkpt lat="43.19771" lon="-1.34611">
        <ele>231.53</ele>
        <time>2026-09-02T06:48:36Z</time>
      </trkpt>
      <trkpt lat="43.19777" lon="-1.34617">
        <ele>232.56</ele>
        <time>2026-09-02T06:48:43Z</time>
      </trkpt>
      <trkpt lat="43.19781" lon="-1.34622">
        <ele>232.85</ele>
        <time>2026-09-02T06:48:49Z</time>
      </trkpt>
      <trkpt lat="43.19784" lon="-1.34629">
        <ele>233.48</ele>
        <time>2026-09-02T06:48:54Z</time>
      </trkpt>
      <trkpt lat="43.19786" lon="-1.34632">
        <ele>233.39</ele>
        <time>2026-09-02T06:48:56Z</time>
      </trkpt>
      <trkpt lat="43.19788" lon="-1.34636">
        <ele>234.15</ele>
        <time>2026-09-02T06:49:00Z</time>
      </trkpt>
      <trkpt lat="43.19792" lon="-1.34639">
        <ele>235.18</ele>
        <time>2026-09-02T06:49:07Z</time>
      </trkpt>
      <trkpt lat="43.19794" lon="-1.34641">
        <ele>235.32</ele>
        <time>2026-09-02T06:49:09Z</time>
      </trkpt>
      <trkpt lat="43.19801" lon="-1.34647">
        <ele>236.68</ele>
        <time>2026-09-02T06:49:18Z</time>
      </trkpt>
      <trkpt lat="43.19803" lon="-1.34649">
        <ele>237.2</ele>
        <time>2026-09-02T06:49:23Z</time>
      </trkpt>
      <trkpt lat="43.19808" lon="-1.34654">
        <ele>237.74</ele>
        <time>2026-09-02T06:49:29Z</time>
      </trkpt>
      <trkpt lat="43.19814" lon="-1.34668">
        <ele>238.6</ele>
        <time>2026-09-02T06:49:41Z</time>
      </trkpt>
      <trkpt lat="43.19818" lon="-1.3468">
        <ele>238.31</ele>
        <time>2026-09-02T06:49:50Z</time>
      </trkpt>
      <trkpt lat="43.19819" lon="-1.34686">
        <ele>238.49</ele>
        <time>2026-09-02T06:49:54Z</time>
      </trkpt>
      <trkpt lat="43.19822" lon="-1.34694">
        <ele>238.54</ele>
        <time>2026-09-02T06:50:08Z</time>
      </trkpt>
      <trkpt lat="43.19826" lon="-1.34701">
        <ele>238.65</ele>
        <time>2026-09-02T06:50:13Z</time>
      </trkpt>
      <trkpt lat="43.19829" lon="-1.34705">
        <ele>238.74</ele>
        <time>2026-09-02T06:50:17Z</time>
      </trkpt>
      <trkpt lat="43.19835" lon="-1.34707">
        <ele>239.14</ele>
        <time>2026-09-02T06:50:25Z</time>
      </trkpt>
      <trkpt lat="43.19839" lon="-1.34709">
        <ele>239.09</ele>
        <time>2026-09-02T06:50:27Z</time>
      </trkpt>
      <trkpt lat="43.19855" lon="-1.347">
        <ele>239.26</ele>
        <time>2026-09-02T06:50:41Z</time>
      </trkpt>
      <trkpt lat="43.19869" lon="-1.34687">
        <ele>238.87</ele>
        <time>2026-09-02T06:50:56Z</time>
      </trkpt>
      <trkpt lat="43.19871" lon="-1.34683">
        <ele>239.09</ele>
        <time>2026-09-02T06:50:59Z</time>
      </trkpt>
      <trkpt lat="43.19875" lon="-1.34678">
        <ele>239.2</ele>
        <time>2026-09-02T06:51:04Z</time>
      </trkpt>
      <trkpt lat="43.19888" lon="-1.34662">
        <ele>239.66</ele>
        <time>2026-09-02T06:51:19Z</time>
      </trkpt>
      <trkpt lat="43.19902" lon="-1.34646">
        <ele>240.67</ele>
        <time>2026-09-02T06:51:35Z</time>
      </trkpt>
      <trkpt lat="43.19918" lon="-1.34633">
        <ele>240.84</ele>
        <time>2026-09-02T06:51:50Z</time>
      </trkpt>
      <trkpt lat="43.19932" lon="-1.34626">
        <ele>241.39</ele>
        <time>2026-09-02T06:52:05Z</time>
      </trkpt>
      <trkpt lat="43.19934" lon="-1.34626">
        <ele>241.72</ele>
        <time>2026-09-02T06:52:07Z</time>
      </trkpt>
      <trkpt lat="43.19944" lon="-1.34626">
        <ele>242.3</ele>
        <time>2026-09-02T06:52:17Z</time>
      </trkpt>
      <trkpt lat="43.19949" lon="-1.34623">
        <ele>242.95</ele>
        <time>2026-09-02T06:52:24Z</time>
      </trkpt>
      <trkpt lat="43.19967" lon="-1.34623">
        <ele>244.4</ele>
        <time>2026-09-02T06:52:40Z</time>
      </trkpt>
      <trkpt lat="43.1997" lon="-1.34624">
        <ele>244.73</ele>
        <time>2026-09-02T06:52:43Z</time>
      </trkpt>
      <trkpt lat="43.19994" lon="-1.34623">
        <ele>244.23</ele>
        <time>2026-09-02T06:53:03Z</time>
      </trkpt>
      <trkpt lat="43.2" lon="-1.34622">
        <ele>244.35</ele>
        <time>2026-09-02T06:53:11Z</time>
      </trkpt>
      <trkpt lat="43.20007" lon="-1.34624">
        <ele>242.99</ele>
        <time>2026-09-02T06:53:18Z</time>
      </trkpt>
      <trkpt lat="43.20021" lon="-1.34621">
        <ele>242.24</ele>
        <time>2026-09-02T06:53:35Z</time>
      </trkpt>
      <trkpt lat="43.20034" lon="-1.34623">
        <ele>240.9</ele>
        <time>2026-09-02T06:53:50Z</time>
      </trkpt>
      <trkpt lat="43.20036" lon="-1.34624">
        <ele>240.89</ele>
        <time>2026-09-02T06:53:51Z</time>
      </trkpt>
      <trkpt lat="43.20038" lon="-1.34625">
        <ele>240.36</ele>
        <time>2026-09-02T06:53:54Z</time>
      </trkpt>
      <trkpt lat="43.20044" lon="-1.34625">
        <ele>240.58</ele>
        <time>2026-09-02T06:53:58Z</time>
      </trkpt>
      <trkpt lat="43.20047" lon="-1.34625">
        <ele>240.39</ele>
        <time>2026-09-02T06:54:02Z</time>
      </trkpt>
      <trkpt lat="43.20068" lon="-1.34629">
        <ele>241.06</ele>
        <time>2026-09-02T06:54:22Z</time>
      </trkpt>
      <trkpt lat="43.20084" lon="-1.34632">
        <ele>241.13</ele>
        <time>2026-09-02T06:54:34Z</time>
      </trkpt>
      <trkpt lat="43.201" lon="-1.34641">
        <ele>240.27</ele>
        <time>2026-09-02T06:54:50Z</time>
      </trkpt>
      <trkpt lat="43.20111" lon="-1.3465">
        <ele>238.62</ele>
        <time>2026-09-02T06:55:03Z</time>
      </trkpt>
      <trkpt lat="43.20118" lon="-1.3465">
        <ele>237.6</ele>
        <time>2026-09-02T06:55:18Z</time>
      </trkpt>
      <trkpt lat="43.2012" lon="-1.34649">
        <ele>237.58</ele>
        <time>2026-09-02T06:55:23Z</time>
      </trkpt>
      <trkpt lat="43.20124" lon="-1.34645">
        <ele>236.96</ele>
        <time>2026-09-02T06:55:47Z</time>
      </trkpt>
      <trkpt lat="43.20122" lon="-1.34646">
        <ele>237.69</ele>
        <time>2026-09-02T06:56:08Z</time>
      </trkpt>
      <trkpt lat="43.20111" lon="-1.34646">
        <ele>238.97</ele>
        <time>2026-09-02T06:56:22Z</time>
      </trkpt>
      <trkpt lat="43.20108" lon="-1.34647">
        <ele>239.11</ele>
        <time>2026-09-02T06:56:38Z</time>
      </trkpt>
      <trkpt lat="43.20117" lon="-1.3465">
        <ele>238.01</ele>
        <time>2026-09-02T06:56:53Z</time>
      </trkpt>
      <trkpt lat="43.20123" lon="-1.34638">
        <ele>235.29</ele>
        <time>2026-09-02T06:57:10Z</time>
      </trkpt>
      <trkpt lat="43.20124" lon="-1.34633">
        <ele>235.05</ele>
        <time>2026-09-02T06:57:13Z</time>
      </trkpt>
      <trkpt lat="43.20124" lon="-1.34607">
        <ele>232.43</ele>
        <time>2026-09-02T06:57:33Z</time>
      </trkpt>
      <trkpt lat="43.20124" lon="-1.34606">
        <ele>232.3</ele>
        <time>2026-09-02T06:57:34Z</time>
      </trkpt>
      <trkpt lat="43.20136" lon="-1.34598">
        <ele>231.02</ele>
        <time>2026-09-02T06:57:49Z</time>
      </trkpt>
      <trkpt lat="43.20148" lon="-1.34597">
        <ele>229.34</ele>
        <time>2026-09-02T06:58:03Z</time>
      </trkpt>
      <trkpt lat="43.20165" lon="-1.34596">
        <ele>226.3</ele>
        <time>2026-09-02T06:58:23Z</time>
      </trkpt>
      <trkpt lat="43.20183" lon="-1.34598">
        <ele>224.3</ele>
        <time>2026-09-02T06:58:39Z</time>
      </trkpt>
      <trkpt lat="43.20206" lon="-1.34602">
        <ele>222.71</ele>
        <time>2026-09-02T06:58:59Z</time>
      </trkpt>
      <trkpt lat="43.20232" lon="-1.34611">
        <ele>220.88</ele>
        <time>2026-09-02T06:59:24Z</time>
      </trkpt>
      <trkpt lat="43.20239" lon="-1.34625">
        <ele>220.09</ele>
        <time>2026-09-02T06:59:40Z</time>
      </trkpt>
      <trkpt lat="43.20236" lon="-1.34631">
        <ele>220.56</ele>
        <time>2026-09-02T06:59:44Z</time>
      </trkpt>
      <trkpt lat="43.20234" lon="-1.34661">
        <ele>222.98</ele>
        <time>2026-09-02T07:00:04Z</time>
      </trkpt>
      <trkpt lat="43.20235" lon="-1.34663">
        <ele>222.91</ele>
        <time>2026-09-02T07:00:06Z</time>
      </trkpt>
      <trkpt lat="43.20237" lon="-1.34678">
        <ele>224.36</ele>
        <time>2026-09-02T07:00:17Z</time>
      </trkpt>
      <trkpt lat="43.20237" lon="-1.34686">
        <ele>225.15</ele>
        <time>2026-09-02T07:00:23Z</time>
      </trkpt>
      <trkpt lat="43.20239" lon="-1.34693">
        <ele>225.84</ele>
        <time>2026-09-02T07:00:28Z</time>
      </trkpt>
      <trkpt lat="43.20246" lon="-1.34699">
        <ele>226.64</ele>
        <time>2026-09-02T07:00:37Z</time>
      </trkpt>
      <trkpt lat="43.20259" lon="-1.34703">
        <ele>228.22</ele>
        <time>2026-09-02T07:00:50Z</time>
      </trkpt>
      <trkpt lat="43.20264" lon="-1.34706">
        <ele>229.03</ele>
        <time>2026-09-02T07:00:56Z</time>
      </trkpt>
      <trkpt lat="43.20278" lon="-1.34716">
        <ele>230.82</ele>
        <time>2026-09-02T07:01:12Z</time>
      </trkpt>
      <trkpt lat="43.20288" lon="-1.34724">
        <ele>231.36</ele>
        <time>2026-09-02T07:01:24Z</time>
      </trkpt>
      <trkpt lat="43.20305" lon="-1.34732">
        <ele>231.96</ele>
        <time>2026-09-02T07:01:38Z</time>
      </trkpt>
      <trkpt lat="43.20305" lon="-1.34733">
        <ele>231.78</ele>
        <time>2026-09-02T07:01:40Z</time>
      </trkpt>
      <trkpt lat="43.20314" lon="-1.34749">
        <ele>232.05</ele>
        <time>2026-09-02T07:01:52Z</time>
      </trkpt>
      <trkpt lat="43.2032" lon="-1.34755">
        <ele>231.33</ele>
        <time>2026-09-02T07:02:03Z</time>
      </trkpt>
      <trkpt lat="43.2032" lon="-1.3476">
        <ele>231.17</ele>
        <time>2026-09-02T07:02:16Z</time>
      </trkpt>
      <trkpt lat="43.20325" lon="-1.34782">
        <ele>229.7</ele>
        <time>2026-09-02T07:02:34Z</time>
      </trkpt>
      <trkpt lat="43.20325" lon="-1.34787">
        <ele>229.54</ele>
        <time>2026-09-02T07:02:38Z</time>
      </trkpt>
      <trkpt lat="43.20322" lon="-1.34786">
        <ele>229.39</ele>
        <time>2026-09-02T07:02:54Z</time>
      </trkpt>
      <trkpt lat="43.20322" lon="-1.34779">
        <ele>229.52</ele>
        <time>2026-09-02T07:03:00Z</time>
      </trkpt>
      <trkpt lat="43.20318" lon="-1.34759">
        <ele>230.59</ele>
        <time>2026-09-02T07:03:15Z</time>
      </trkpt>
      <trkpt lat="43.20313" lon="-1.34757">
        <ele>231.94</ele>
        <time>2026-09-02T07:03:35Z</time>
      </trkpt>
      <trkpt lat="43.20315" lon="-1.34768">
        <ele>234.11</ele>
        <time>2026-09-02T07:03:51Z</time>
      </trkpt>
      <trkpt lat="43.20313" lon="-1.34772">
        <ele>233.91</ele>
        <time>2026-09-02T07:04:20Z</time>
      </trkpt>
      <trkpt lat="43.20307" lon="-1.34789">
        <ele>237.03</ele>
        <time>2026-09-02T07:04:37Z</time>
      </trkpt>
      <trkpt lat="43.20298" lon="-1.34796">
        <ele>239.11</ele>
        <time>2026-09-02T07:04:51Z</time>
      </trkpt>
      <trkpt lat="43.20293" lon="-1.34799">
        <ele>240.18</ele>
        <time>2026-09-02T07:05:04Z</time>
      </trkpt>
      <trkpt lat="43.20294" lon="-1.34801">
        <ele>239.92</ele>
        <time>2026-09-02T07:05:31Z</time>
      </trkpt>
      <trkpt lat="43.20286" lon="-1.34802">
        <ele>240.94</ele>
        <time>2026-09-02T07:05:52Z</time>
      </trkpt>
      <trkpt lat="43.20278" lon="-1.34807">
        <ele>243.84</ele>
        <time>2026-09-02T07:06:12Z</time>
      </trkpt>
      <trkpt lat="43.20276" lon="-1.34809">
        <ele>244.34</ele>
        <time>2026-09-02T07:06:16Z</time>
      </trkpt>
      <trkpt lat="43.2027" lon="-1.34814">
        <ele>246.41</ele>
        <time>2026-09-02T07:06:31Z</time>
      </trkpt>
      <trkpt lat="43.20265" lon="-1.34816">
        <ele>248.3</ele>
        <time>2026-09-02T07:06:44Z</time>
      </trkpt>
      <trkpt lat="43.2026" lon="-1.34822">
        <ele>251.43</ele>
        <time>2026-09-02T07:07:07Z</time>
      </trkpt>
      <trkpt lat="43.20259" lon="-1.34823">
        <ele>251.81</ele>
        <time>2026-09-02T07:07:10Z</time>
      </trkpt>
      <trkpt lat="43.20253" lon="-1.34834">
        <ele>253.52</ele>
        <time>2026-09-02T07:07:25Z</time>
      </trkpt>
      <trkpt lat="43.2025" lon="-1.34839">
        <ele>254.17</ele>
        <time>2026-09-02T07:07:28Z</time>
      </trkpt>
      <trkpt lat="43.20244" lon="-1.34848">
        <ele>255.97</ele>
        <time>2026-09-02T07:07:43Z</time>
      </trkpt>
      <trkpt lat="43.20239" lon="-1.34854">
        <ele>258.35</ele>
        <time>2026-09-02T07:08:00Z</time>
      </trkpt>
      <trkpt lat="43.20238" lon="-1.34855">
        <ele>258.66</ele>
        <time>2026-09-02T07:08:02Z</time>
      </trkpt>
      <trkpt lat="43.20229" lon="-1.34866">
        <ele>259.36</ele>
        <time>2026-09-02T07:08:26Z</time>
      </trkpt>
      <trkpt lat="43.20224" lon="-1.3487">
        <ele>260.26</ele>
        <time>2026-09-02T07:08:33Z</time>
      </trkpt>
      <trkpt lat="43.20211" lon="-1.34872">
        <ele>261.78</ele>
        <time>2026-09-02T07:08:46Z</time>
      </trkpt>
      <trkpt lat="43.20209" lon="-1.34863">
        <ele>263.85</ele>
        <time>2026-09-02T07:08:59Z</time>
      </trkpt>
      <trkpt lat="43.20207" lon="-1.34851">
        <ele>264.94</ele>
        <time>2026-09-02T07:09:14Z</time>
      </trkpt>
      <trkpt lat="43.20207" lon="-1.34844">
        <ele>264.85</ele>
        <time>2026-09-02T07:09:44Z</time>
      </trkpt>
      <trkpt lat="43.20209" lon="-1.34844">
        <ele>265.05</ele>
        <time>2026-09-02T07:10:07Z</time>
      </trkpt>
      <trkpt lat="43.20208" lon="-1.34843">
        <ele>264.48</ele>
        <time>2026-09-02T07:10:25Z</time>
      </trkpt>
      <trkpt lat="43.20202" lon="-1.34843">
        <ele>264.76</ele>
        <time>2026-09-02T07:10:38Z</time>
      </trkpt>
      <trkpt lat="43.20207" lon="-1.34841">
        <ele>264.7</ele>
        <time>2026-09-02T07:10:59Z</time>
      </trkpt>
      <trkpt lat="43.20207" lon="-1.34849">
        <ele>267.19</ele>
        <time>2026-09-02T07:11:29Z</time>
      </trkpt>
      <trkpt lat="43.20194" lon="-1.34862">
        <ele>268.13</ele>
        <time>2026-09-02T07:11:45Z</time>
      </trkpt>
      <trkpt lat="43.20182" lon="-1.34874">
        <ele>268.51</ele>
        <time>2026-09-02T07:11:57Z</time>
      </trkpt>
      <trkpt lat="43.20178" lon="-1.3488">
        <ele>268.49</ele>
        <time>2026-09-02T07:11:59Z</time>
      </trkpt>
      <trkpt lat="43.20176" lon="-1.34882">
        <ele>268.73</ele>
        <time>2026-09-02T07:12:01Z</time>
      </trkpt>
      <trkpt lat="43.20165" lon="-1.34892">
        <ele>269.42</ele>
        <time>2026-09-02T07:12:17Z</time>
      </trkpt>
      <trkpt lat="43.20159" lon="-1.34897">
        <ele>269.81</ele>
        <time>2026-09-02T07:12:23Z</time>
      </trkpt>
      <trkpt lat="43.20153" lon="-1.34904">
        <ele>270.17</ele>
        <time>2026-09-02T07:12:28Z</time>
      </trkpt>
      <trkpt lat="43.20147" lon="-1.34911">
        <ele>270.56</ele>
        <time>2026-09-02T07:12:35Z</time>
      </trkpt>
      <trkpt lat="43.20133" lon="-1.34922">
        <ele>271.5</ele>
        <time>2026-09-02T07:12:51Z</time>
      </trkpt>
      <trkpt lat="43.20132" lon="-1.34923">
        <ele>271.49</ele>
        <time>2026-09-02T07:12:53Z</time>
      </trkpt>
      <trkpt lat="43.20128" lon="-1.34929">
        <ele>272.29</ele>
        <time>2026-09-02T07:13:02Z</time>
      </trkpt>
      <trkpt lat="43.20124" lon="-1.3494">
        <ele>273.05</ele>
        <time>2026-09-02T07:13:10Z</time>
      </trkpt>
      <trkpt lat="43.20125" lon="-1.34947">
        <ele>273.56</ele>
        <time>2026-09-02T07:13:16Z</time>
      </trkpt>
      <trkpt lat="43.20127" lon="-1.34952">
        <ele>273.89</ele>
        <time>2026-09-02T07:13:21Z</time>
      </trkpt>
      <trkpt lat="43.20125" lon="-1.34969">
        <ele>274.45</ele>
        <time>2026-09-02T07:13:31Z</time>
      </trkpt>
      <trkpt lat="43.20124" lon="-1.34976">
        <ele>274.68</ele>
        <time>2026-09-02T07:13:34Z</time>
      </trkpt>
      <trkpt lat="43.20124" lon="-1.3498">
        <ele>274.74</ele>
        <time>2026-09-02T07:13:38Z</time>
      </trkpt>
      <trkpt lat="43.20116" lon="-1.34989">
        <ele>275.65</ele>
        <time>2026-09-02T07:13:50Z</time>
      </trkpt>
      <trkpt lat="43.2011" lon="-1.34993">
        <ele>276.95</ele>
        <time>2026-09-02T07:14:04Z</time>
      </trkpt>
      <trkpt lat="43.201" lon="-1.34995">
        <ele>279.31</ele>
        <time>2026-09-02T07:14:18Z</time>
      </trkpt>
      <trkpt lat="43.20093" lon="-1.34997">
        <ele>281.53</ele>
        <time>2026-09-02T07:14:36Z</time>
      </trkpt>
      <trkpt lat="43.20087" lon="-1.34998">
        <ele>283.46</ele>
        <time>2026-09-02T07:14:49Z</time>
      </trkpt>
      <trkpt lat="43.20083" lon="-1.34998">
        <ele>285.09</ele>
        <time>2026-09-02T07:15:02Z</time>
      </trkpt>
      <trkpt lat="43.20074" lon="-1.35003">
        <ele>288.13</ele>
        <time>2026-09-02T07:15:22Z</time>
      </trkpt>
      <trkpt lat="43.20073" lon="-1.35003">
        <ele>288.51</ele>
        <time>2026-09-02T07:15:24Z</time>
      </trkpt>
      <trkpt lat="43.20069" lon="-1.35002">
        <ele>289.96</ele>
        <time>2026-09-02T07:15:31Z</time>
      </trkpt>
      <trkpt lat="43.20065" lon="-1.35004">
        <ele>290.96</ele>
        <time>2026-09-02T07:15:37Z</time>
      </trkpt>
      <trkpt lat="43.20057" lon="-1.35012">
        <ele>292.98</ele>
        <time>2026-09-02T07:15:51Z</time>
      </trkpt>
      <trkpt lat="43.2005" lon="-1.35013">
        <ele>295.1</ele>
        <time>2026-09-02T07:16:07Z</time>
      </trkpt>
      <trkpt lat="43.20046" lon="-1.3501">
        <ele>295.26</ele>
        <time>2026-09-02T07:16:14Z</time>
      </trkpt>
      <trkpt lat="43.20045" lon="-1.35007">
        <ele>295.24</ele>
        <time>2026-09-02T07:16:16Z</time>
      </trkpt>
      <trkpt lat="43.20037" lon="-1.34988">
        <ele>297.2</ele>
        <time>2026-09-02T07:16:40Z</time>
      </trkpt>
      <trkpt lat="43.20037" lon="-1.34974">
        <ele>298.23</ele>
        <time>2026-09-02T07:16:53Z</time>
      </trkpt>
      <trkpt lat="43.20037" lon="-1.3497">
        <ele>298.85</ele>
        <time>2026-09-02T07:16:57Z</time>
      </trkpt>
      <trkpt lat="43.20038" lon="-1.34967">
        <ele>299.13</ele>
        <time>2026-09-02T07:17:00Z</time>
      </trkpt>
      <trkpt lat="43.20038" lon="-1.34963">
        <ele>299.68</ele>
        <time>2026-09-02T07:17:04Z</time>
      </trkpt>
      <trkpt lat="43.2004" lon="-1.34954">
        <ele>301.08</ele>
        <time>2026-09-02T07:17:16Z</time>
      </trkpt>
      <trkpt lat="43.2003" lon="-1.3495">
        <ele>303.29</ele>
        <time>2026-09-02T07:17:40Z</time>
      </trkpt>
      <trkpt lat="43.20021" lon="-1.34952">
        <ele>304.37</ele>
        <time>2026-09-02T07:17:50Z</time>
      </trkpt>
      <trkpt lat="43.20015" lon="-1.34953">
        <ele>305.58</ele>
        <time>2026-09-02T07:17:57Z</time>
      </trkpt>
      <trkpt lat="43.2001" lon="-1.34952">
        <ele>306.47</ele>
        <time>2026-09-02T07:18:02Z</time>
      </trkpt>
      <trkpt lat="43.19999" lon="-1.34953">
        <ele>308.23</ele>
        <time>2026-09-02T07:18:19Z</time>
      </trkpt>
      <trkpt lat="43.19994" lon="-1.34952">
        <ele>308.99</ele>
        <time>2026-09-02T07:18:37Z</time>
      </trkpt>
      <trkpt lat="43.19984" lon="-1.34955">
        <ele>310.35</ele>
        <time>2026-09-02T07:18:53Z</time>
      </trkpt>
      <trkpt lat="43.19977" lon="-1.34954">
        <ele>311.11</ele>
        <time>2026-09-02T07:19:12Z</time>
      </trkpt>
      <trkpt lat="43.19968" lon="-1.34957">
        <ele>311.84</ele>
        <time>2026-09-02T07:19:34Z</time>
      </trkpt>
      <trkpt lat="43.19955" lon="-1.34964">
        <ele>312.94</ele>
        <time>2026-09-02T07:19:51Z</time>
      </trkpt>
      <trkpt lat="43.19942" lon="-1.34972">
        <ele>314.79</ele>
        <time>2026-09-02T07:20:09Z</time>
      </trkpt>
      <trkpt lat="43.19933" lon="-1.34981">
        <ele>316.45</ele>
        <time>2026-09-02T07:20:26Z</time>
      </trkpt>
      <trkpt lat="43.19925" lon="-1.34985">
        <ele>317.3</ele>
        <time>2026-09-02T07:20:37Z</time>
      </trkpt>
      <trkpt lat="43.19919" lon="-1.34986">
        <ele>318.59</ele>
        <time>2026-09-02T07:20:48Z</time>
      </trkpt>
      <trkpt lat="43.19914" lon="-1.34987">
        <ele>320.33</ele>
        <time>2026-09-02T07:20:59Z</time>
      </trkpt>
      <trkpt lat="43.19908" lon="-1.34993">
        <ele>322</ele>
        <time>2026-09-02T07:21:12Z</time>
      </trkpt>
      <trkpt lat="43.19907" lon="-1.35003">
        <ele>322.78</ele>
        <time>2026-09-02T07:21:20Z</time>
      </trkpt>
      <trkpt lat="43.19906" lon="-1.35013">
        <ele>324.05</ele>
        <time>2026-09-02T07:21:32Z</time>
      </trkpt>
      <trkpt lat="43.19906" lon="-1.35015">
        <ele>324.29</ele>
        <time>2026-09-02T07:21:35Z</time>
      </trkpt>
      <trkpt lat="43.19901" lon="-1.35026">
        <ele>325.58</ele>
        <time>2026-09-02T07:21:51Z</time>
      </trkpt>
      <trkpt lat="43.19895" lon="-1.3503">
        <ele>327.3</ele>
        <time>2026-09-02T07:22:03Z</time>
      </trkpt>
      <trkpt lat="43.19887" lon="-1.35039">
        <ele>328.64</ele>
        <time>2026-09-02T07:22:17Z</time>
      </trkpt>
      <trkpt lat="43.19872" lon="-1.35043">
        <ele>330.99</ele>
        <time>2026-09-02T07:22:34Z</time>
      </trkpt>
      <trkpt lat="43.19862" lon="-1.35051">
        <ele>333.51</ele>
        <time>2026-09-02T07:22:53Z</time>
      </trkpt>
      <trkpt lat="43.19861" lon="-1.35053">
        <ele>333.91</ele>
        <time>2026-09-02T07:22:58Z</time>
      </trkpt>
      <trkpt lat="43.19858" lon="-1.35057">
        <ele>334.32</ele>
        <time>2026-09-02T07:23:03Z</time>
      </trkpt>
      <trkpt lat="43.19856" lon="-1.3506">
        <ele>334.83</ele>
        <time>2026-09-02T07:23:06Z</time>
      </trkpt>
      <trkpt lat="43.19854" lon="-1.35063">
        <ele>334.82</ele>
        <time>2026-09-02T07:23:10Z</time>
      </trkpt>
      <trkpt lat="43.19852" lon="-1.35064">
        <ele>334.96</ele>
        <time>2026-09-02T07:23:12Z</time>
      </trkpt>
      <trkpt lat="43.19849" lon="-1.35066">
        <ele>335.5</ele>
        <time>2026-09-02T07:23:25Z</time>
      </trkpt>
      <trkpt lat="43.19852" lon="-1.35062">
        <ele>334.92</ele>
        <time>2026-09-02T07:23:31Z</time>
      </trkpt>
      <trkpt lat="43.19851" lon="-1.35062">
        <ele>335.56</ele>
        <time>2026-09-02T07:24:01Z</time>
      </trkpt>
      <trkpt lat="43.1985" lon="-1.35062">
        <ele>335.15</ele>
        <time>2026-09-02T07:24:14Z</time>
      </trkpt>
      <trkpt lat="43.19846" lon="-1.35062">
        <ele>335.07</ele>
        <time>2026-09-02T07:24:44Z</time>
      </trkpt>
      <trkpt lat="43.19851" lon="-1.35063">
        <ele>335.09</ele>
        <time>2026-09-02T07:25:19Z</time>
      </trkpt>
      <trkpt lat="43.19844" lon="-1.35075">
        <ele>336.12</ele>
        <time>2026-09-02T07:25:38Z</time>
      </trkpt>
      <trkpt lat="43.1984" lon="-1.35089">
        <ele>338.45</ele>
        <time>2026-09-02T07:25:57Z</time>
      </trkpt>
      <trkpt lat="43.19836" lon="-1.35099">
        <ele>340.14</ele>
        <time>2026-09-02T07:26:12Z</time>
      </trkpt>
      <trkpt lat="43.19832" lon="-1.35112">
        <ele>342.1</ele>
        <time>2026-09-02T07:26:30Z</time>
      </trkpt>
      <trkpt lat="43.19829" lon="-1.35122">
        <ele>343.78</ele>
        <time>2026-09-02T07:26:42Z</time>
      </trkpt>
      <trkpt lat="43.19825" lon="-1.35128">
        <ele>345.37</ele>
        <time>2026-09-02T07:26:55Z</time>
      </trkpt>
      <trkpt lat="43.1982" lon="-1.3514">
        <ele>346.92</ele>
        <time>2026-09-02T07:27:11Z</time>
      </trkpt>
      <trkpt lat="43.1982" lon="-1.35156">
        <ele>349.04</ele>
        <time>2026-09-02T07:27:30Z</time>
      </trkpt>
      <trkpt lat="43.19817" lon="-1.3517">
        <ele>351.11</ele>
        <time>2026-09-02T07:27:48Z</time>
      </trkpt>
      <trkpt lat="43.19814" lon="-1.35182">
        <ele>353.39</ele>
        <time>2026-09-02T07:28:05Z</time>
      </trkpt>
      <trkpt lat="43.19808" lon="-1.3519">
        <ele>355.14</ele>
        <time>2026-09-02T07:28:19Z</time>
      </trkpt>
      <trkpt lat="43.19808" lon="-1.35192">
        <ele>355.66</ele>
        <time>2026-09-02T07:28:25Z</time>
      </trkpt>
      <trkpt lat="43.19803" lon="-1.35203">
        <ele>356.52</ele>
        <time>2026-09-02T07:28:38Z</time>
      </trkpt>
      <trkpt lat="43.19798" lon="-1.35206">
        <ele>357.47</ele>
        <time>2026-09-02T07:28:52Z</time>
      </trkpt>
      <trkpt lat="43.19794" lon="-1.35211">
        <ele>357.73</ele>
        <time>2026-09-02T07:29:08Z</time>
      </trkpt>
      <trkpt lat="43.19789" lon="-1.35205">
        <ele>357.68</ele>
        <time>2026-09-02T07:29:20Z</time>
      </trkpt>
      <trkpt lat="43.19784" lon="-1.35218">
        <ele>358.42</ele>
        <time>2026-09-02T07:29:45Z</time>
      </trkpt>
      <trkpt lat="43.19784" lon="-1.35221">
        <ele>358.84</ele>
        <time>2026-09-02T07:29:49Z</time>
      </trkpt>
      <trkpt lat="43.19779" lon="-1.35233">
        <ele>360.29</ele>
        <time>2026-09-02T07:30:01Z</time>
      </trkpt>
      <trkpt lat="43.19774" lon="-1.35248">
        <ele>362.46</ele>
        <time>2026-09-02T07:30:21Z</time>
      </trkpt>
      <trkpt lat="43.19784" lon="-1.35245">
        <ele>365.02</ele>
        <time>2026-09-02T07:30:41Z</time>
      </trkpt>
      <trkpt lat="43.19793" lon="-1.35241">
        <ele>366.46</ele>
        <time>2026-09-02T07:30:56Z</time>
      </trkpt>
      <trkpt lat="43.19804" lon="-1.35234">
        <ele>368.32</ele>
        <time>2026-09-02T07:31:13Z</time>
      </trkpt>
      <trkpt lat="43.19814" lon="-1.35229">
        <ele>370.37</ele>
        <time>2026-09-02T07:31:30Z</time>
      </trkpt>
      <trkpt lat="43.19822" lon="-1.35227">
        <ele>371.77</ele>
        <time>2026-09-02T07:31:43Z</time>
      </trkpt>
      <trkpt lat="43.19836" lon="-1.35222">
        <ele>373.82</ele>
        <time>2026-09-02T07:32:01Z</time>
      </trkpt>
      <trkpt lat="43.19847" lon="-1.35222">
        <ele>375.81</ele>
        <time>2026-09-02T07:32:19Z</time>
      </trkpt>
      <trkpt lat="43.19847" lon="-1.35231">
        <ele>377.44</ele>
        <time>2026-09-02T07:32:39Z</time>
      </trkpt>
      <trkpt lat="43.19843" lon="-1.35237">
        <ele>379.28</ele>
        <time>2026-09-02T07:32:55Z</time>
      </trkpt>
      <trkpt lat="43.19841" lon="-1.35245">
        <ele>381.13</ele>
        <time>2026-09-02T07:33:11Z</time>
      </trkpt>
      <trkpt lat="43.19837" lon="-1.35257">
        <ele>383.81</ele>
        <time>2026-09-02T07:33:30Z</time>
      </trkpt>
      <trkpt lat="43.19835" lon="-1.3527">
        <ele>386.04</ele>
        <time>2026-09-02T07:33:48Z</time>
      </trkpt>
      <trkpt lat="43.19836" lon="-1.35282">
        <ele>388.09</ele>
        <time>2026-09-02T07:34:06Z</time>
      </trkpt>
      <trkpt lat="43.19834" lon="-1.35294">
        <ele>390.67</ele>
        <time>2026-09-02T07:34:23Z</time>
      </trkpt>
      <trkpt lat="43.19831" lon="-1.35295">
        <ele>391.91</ele>
        <time>2026-09-02T07:34:44Z</time>
      </trkpt>
      <trkpt lat="43.19833" lon="-1.35297">
        <ele>391.81</ele>
        <time>2026-09-02T07:35:07Z</time>
      </trkpt>
      <trkpt lat="43.19832" lon="-1.35299">
        <ele>391.71</ele>
        <time>2026-09-02T07:35:37Z</time>
      </trkpt>
      <trkpt lat="43.19834" lon="-1.35305">
        <ele>393.14</ele>
        <time>2026-09-02T07:35:59Z</time>
      </trkpt>
      <trkpt lat="43.19831" lon="-1.35318">
        <ele>396.14</ele>
        <time>2026-09-02T07:36:19Z</time>
      </trkpt>
      <trkpt lat="43.19829" lon="-1.3533">
        <ele>398.2</ele>
        <time>2026-09-02T07:36:36Z</time>
      </trkpt>
      <trkpt lat="43.19827" lon="-1.35342">
        <ele>400.11</ele>
        <time>2026-09-02T07:36:56Z</time>
      </trkpt>
      <trkpt lat="43.19825" lon="-1.35357">
        <ele>403.1</ele>
        <time>2026-09-02T07:37:18Z</time>
      </trkpt>
      <trkpt lat="43.19823" lon="-1.35368">
        <ele>405.8</ele>
        <time>2026-09-02T07:37:37Z</time>
      </trkpt>
      <trkpt lat="43.1982" lon="-1.35376">
        <ele>407.4</ele>
        <time>2026-09-02T07:37:50Z</time>
      </trkpt>
      <trkpt lat="43.19816" lon="-1.35389">
        <ele>409.85</ele>
        <time>2026-09-02T07:38:10Z</time>
      </trkpt>
      <trkpt lat="43.19812" lon="-1.35401">
        <ele>412.05</ele>
        <time>2026-09-02T07:38:27Z</time>
      </trkpt>
      <trkpt lat="43.1981" lon="-1.35414">
        <ele>414.59</ele>
        <time>2026-09-02T07:38:48Z</time>
      </trkpt>
      <trkpt lat="43.19808" lon="-1.35417">
        <ele>415.66</ele>
        <time>2026-09-02T07:39:07Z</time>
      </trkpt>
      <trkpt lat="43.19807" lon="-1.35416">
        <ele>415.81</ele>
        <time>2026-09-02T07:39:33Z</time>
      </trkpt>
      <trkpt lat="43.19807" lon="-1.35421">
        <ele>416.75</ele>
        <time>2026-09-02T07:39:55Z</time>
      </trkpt>
      <trkpt lat="43.19806" lon="-1.35433">
        <ele>419.24</ele>
        <time>2026-09-02T07:40:15Z</time>
      </trkpt>
      <trkpt lat="43.19804" lon="-1.35439">
        <ele>419.86</ele>
        <time>2026-09-02T07:40:32Z</time>
      </trkpt>
      <trkpt lat="43.19804" lon="-1.35447">
        <ele>421.6</ele>
        <time>2026-09-02T07:40:48Z</time>
      </trkpt>
      <trkpt lat="43.19803" lon="-1.35454">
        <ele>422.68</ele>
        <time>2026-09-02T07:41:06Z</time>
      </trkpt>
      <trkpt lat="43.19799" lon="-1.35469">
        <ele>425.39</ele>
        <time>2026-09-02T07:41:25Z</time>
      </trkpt>
      <trkpt lat="43.19796" lon="-1.35481">
        <ele>427.63</ele>
        <time>2026-09-02T07:41:44Z</time>
      </trkpt>
      <trkpt lat="43.19792" lon="-1.35493">
        <ele>429.65</ele>
        <time>2026-09-02T07:42:01Z</time>
      </trkpt>
      <trkpt lat="43.19791" lon="-1.35504">
        <ele>431.51</ele>
        <time>2026-09-02T07:42:20Z</time>
      </trkpt>
      <trkpt lat="43.19788" lon="-1.35516">
        <ele>433.73</ele>
        <time>2026-09-02T07:42:36Z</time>
      </trkpt>
      <trkpt lat="43.19786" lon="-1.35527">
        <ele>435.83</ele>
        <time>2026-09-02T07:42:54Z</time>
      </trkpt>
      <trkpt lat="43.19783" lon="-1.3554">
        <ele>437.78</ele>
        <time>2026-09-02T07:43:14Z</time>
      </trkpt>
      <trkpt lat="43.19781" lon="-1.35549">
        <ele>439.1</ele>
        <time>2026-09-02T07:43:30Z</time>
      </trkpt>
      <trkpt lat="43.19783" lon="-1.35559">
        <ele>441.66</ele>
        <time>2026-09-02T07:43:46Z</time>
      </trkpt>
      <trkpt lat="43.19784" lon="-1.35569">
        <ele>442.93</ele>
        <time>2026-09-02T07:44:04Z</time>
      </trkpt>
      <trkpt lat="43.1979" lon="-1.35577">
        <ele>444.83</ele>
        <time>2026-09-02T07:44:21Z</time>
      </trkpt>
      <trkpt lat="43.19794" lon="-1.35579">
        <ele>446.03</ele>
        <time>2026-09-02T07:44:45Z</time>
      </trkpt>
      <trkpt lat="43.19794" lon="-1.35576">
        <ele>446.17</ele>
        <time>2026-09-02T07:45:14Z</time>
      </trkpt>
      <trkpt lat="43.19791" lon="-1.35578">
        <ele>446.14</ele>
        <time>2026-09-02T07:45:34Z</time>
      </trkpt>
      <trkpt lat="43.19797" lon="-1.35587">
        <ele>447.64</ele>
        <time>2026-09-02T07:45:59Z</time>
      </trkpt>
      <trkpt lat="43.19798" lon="-1.35603">
        <ele>449.81</ele>
        <time>2026-09-02T07:46:16Z</time>
      </trkpt>
      <trkpt lat="43.19799" lon="-1.35615">
        <ele>451.79</ele>
        <time>2026-09-02T07:46:32Z</time>
      </trkpt>
      <trkpt lat="43.19798" lon="-1.3562">
        <ele>452.2</ele>
        <time>2026-09-02T07:46:47Z</time>
      </trkpt>
      <trkpt lat="43.19797" lon="-1.3563">
        <ele>453.92</ele>
        <time>2026-09-02T07:47:02Z</time>
      </trkpt>
      <trkpt lat="43.19797" lon="-1.35633">
        <ele>454.3</ele>
        <time>2026-09-02T07:47:18Z</time>
      </trkpt>
      <trkpt lat="43.19797" lon="-1.35631">
        <ele>454.2</ele>
        <time>2026-09-02T07:47:39Z</time>
      </trkpt>
      <trkpt lat="43.19799" lon="-1.35647">
        <ele>456.23</ele>
        <time>2026-09-02T07:47:59Z</time>
      </trkpt>
      <trkpt lat="43.19797" lon="-1.35664">
        <ele>457.34</ele>
        <time>2026-09-02T07:48:16Z</time>
      </trkpt>
      <trkpt lat="43.19796" lon="-1.35679">
        <ele>458.45</ele>
        <time>2026-09-02T07:48:34Z</time>
      </trkpt>
      <trkpt lat="43.19795" lon="-1.35693">
        <ele>460.19</ele>
        <time>2026-09-02T07:48:51Z</time>
      </trkpt>
      <trkpt lat="43.19793" lon="-1.35707">
        <ele>462.4</ele>
        <time>2026-09-02T07:49:10Z</time>
      </trkpt>
      <trkpt lat="43.19792" lon="-1.35716">
        <ele>463.11</ele>
        <time>2026-09-02T07:49:33Z</time>
      </trkpt>
      <trkpt lat="43.19788" lon="-1.3573">
        <ele>464.74</ele>
        <time>2026-09-02T07:49:52Z</time>
      </trkpt>
      <trkpt lat="43.19788" lon="-1.35743">
        <ele>466.35</ele>
        <time>2026-09-02T07:50:10Z</time>
      </trkpt>
      <trkpt lat="43.19787" lon="-1.35755">
        <ele>468.25</ele>
        <time>2026-09-02T07:50:27Z</time>
      </trkpt>
      <trkpt lat="43.19788" lon="-1.35768">
        <ele>470.32</ele>
        <time>2026-09-02T07:50:46Z</time>
      </trkpt>
      <trkpt lat="43.19787" lon="-1.3578">
        <ele>472.1</ele>
        <time>2026-09-02T07:51:06Z</time>
      </trkpt>
      <trkpt lat="43.19787" lon="-1.3579">
        <ele>473.52</ele>
        <time>2026-09-02T07:51:24Z</time>
      </trkpt>
      <trkpt lat="43.19784" lon="-1.35801">
        <ele>475.18</ele>
        <time>2026-09-02T07:51:42Z</time>
      </trkpt>
      <trkpt lat="43.19784" lon="-1.35808">
        <ele>476.54</ele>
        <time>2026-09-02T07:52:00Z</time>
      </trkpt>
      <trkpt lat="43.19783" lon="-1.35819">
        <ele>477.81</ele>
        <time>2026-09-02T07:52:18Z</time>
      </trkpt>
      <trkpt lat="43.19783" lon="-1.35831">
        <ele>479.67</ele>
        <time>2026-09-02T07:52:37Z</time>
      </trkpt>
      <trkpt lat="43.19782" lon="-1.35842">
        <ele>481.29</ele>
        <time>2026-09-02T07:52:54Z</time>
      </trkpt>
      <trkpt lat="43.19784" lon="-1.35849">
        <ele>483.12</ele>
        <time>2026-09-02T07:53:09Z</time>
      </trkpt>
      <trkpt lat="43.19782" lon="-1.35854">
        <ele>484.61</ele>
        <time>2026-09-02T07:53:25Z</time>
      </trkpt>
      <trkpt lat="43.19786" lon="-1.35861">
        <ele>486.08</ele>
        <time>2026-09-02T07:53:51Z</time>
      </trkpt>
      <trkpt lat="43.19786" lon="-1.35871">
        <ele>488.07</ele>
        <time>2026-09-02T07:54:07Z</time>
      </trkpt>
      <trkpt lat="43.19784" lon="-1.35881">
        <ele>489.59</ele>
        <time>2026-09-02T07:54:23Z</time>
      </trkpt>
      <trkpt lat="43.19784" lon="-1.35893">
        <ele>491.23</ele>
        <time>2026-09-02T07:54:39Z</time>
      </trkpt>
      <trkpt lat="43.19782" lon="-1.359">
        <ele>492.32</ele>
        <time>2026-09-02T07:54:50Z</time>
      </trkpt>
      <trkpt lat="43.1978" lon="-1.35909">
        <ele>494.02</ele>
        <time>2026-09-02T07:55:08Z</time>
      </trkpt>
      <trkpt lat="43.19781" lon="-1.35911">
        <ele>494.68</ele>
        <time>2026-09-02T07:55:24Z</time>
      </trkpt>
      <trkpt lat="43.19784" lon="-1.35911">
        <ele>494.67</ele>
        <time>2026-09-02T07:55:58Z</time>
      </trkpt>
      <trkpt lat="43.19784" lon="-1.3591">
        <ele>494.56</ele>
        <time>2026-09-02T07:56:20Z</time>
      </trkpt>
      <trkpt lat="43.19783" lon="-1.35907">
        <ele>495.01</ele>
        <time>2026-09-02T07:56:38Z</time>
      </trkpt>
      <trkpt lat="43.19784" lon="-1.35908">
        <ele>494.26</ele>
        <time>2026-09-02T07:56:42Z</time>
      </trkpt>
      <trkpt lat="43.19783" lon="-1.35912">
        <ele>494.66</ele>
        <time>2026-09-02T07:57:17Z</time>
      </trkpt>
      <trkpt lat="43.19784" lon="-1.35913">
        <ele>495.93</ele>
        <time>2026-09-02T07:57:34Z</time>
      </trkpt>
      <trkpt lat="43.19784" lon="-1.35913">
        <ele>494.9</ele>
        <time>2026-09-02T07:58:01Z</time>
      </trkpt>
      <trkpt lat="43.19785" lon="-1.3591">
        <ele>494.87</ele>
        <time>2026-09-02T07:58:30Z</time>
      </trkpt>
      <trkpt lat="43.1978" lon="-1.35908">
        <ele>493.27</ele>
        <time>2026-09-02T07:58:47Z</time>
      </trkpt>
      <trkpt lat="43.1978" lon="-1.35908">
        <ele>497.11</ele>
        <time>2026-09-02T07:58:49Z</time>
      </trkpt>
      <trkpt lat="43.1978" lon="-1.35908">
        <ele>495.19</ele>
        <time>2026-09-02T07:58:50Z</time>
      </trkpt>
      <trkpt lat="43.1978" lon="-1.35908">
        <ele>491.91</ele>
        <time>2026-09-02T07:58:51Z</time>
      </trkpt>
      <trkpt lat="43.19781" lon="-1.35908">
        <ele>493.05</ele>
        <time>2026-09-02T07:58:52Z</time>
      </trkpt>
      <trkpt lat="43.1978" lon="-1.35908">
        <ele>496.92</ele>
        <time>2026-09-02T07:58:53Z</time>
      </trkpt>
      <trkpt lat="43.19781" lon="-1.35909">
        <ele>496.12</ele>
        <time>2026-09-02T07:58:54Z</time>
      </trkpt>
      <trkpt lat="43.19781" lon="-1.35911">
        <ele>494.82</ele>
        <time>2026-09-02T07:58:58Z</time>
      </trkpt>
      <trkpt lat="43.19781" lon="-1.35909">
        <ele>495.18</ele>
        <time>2026-09-02T07:59:29Z</time>
      </trkpt>
      <trkpt lat="43.19782" lon="-1.35909">
        <ele>495.11</ele>
        <time>2026-09-02T07:59:56Z</time>
      </trkpt>
      <trkpt lat="43.19782" lon="-1.35908">
        <ele>495.23</ele>
        <time>2026-09-02T08:00:25Z</time>
      </trkpt>
      <trkpt lat="43.19781" lon="-1.35908">
        <ele>495.32</ele>
        <time>2026-09-02T08:00:54Z</time>
      </trkpt>
      <trkpt lat="43.19781" lon="-1.35906">
        <ele>495.65</ele>
        <time>2026-09-02T08:01:32Z</time>
      </trkpt>
      <trkpt lat="43.19782" lon="-1.3591">
        <ele>495.74</ele>
        <time>2026-09-02T08:02:04Z</time>
      </trkpt>
      <trkpt lat="43.1978" lon="-1.35909">
        <ele>495.48</ele>
        <time>2026-09-02T08:02:34Z</time>
      </trkpt>
      <trkpt lat="43.1978" lon="-1.35909">
        <ele>495.79</ele>
        <time>2026-09-02T08:03:08Z</time>
      </trkpt>
      <trkpt lat="43.19782" lon="-1.35911">
        <ele>494.06</ele>
        <time>2026-09-02T08:03:40Z</time>
      </trkpt>
      <trkpt lat="43.19782" lon="-1.35912">
        <ele>499.5</ele>
        <time>2026-09-02T08:03:44Z</time>
      </trkpt>
      <trkpt lat="43.19782" lon="-1.35912">
        <ele>495.56</ele>
        <time>2026-09-02T08:03:46Z</time>
      </trkpt>
      <trkpt lat="43.19782" lon="-1.35912">
        <ele>495.37</ele>
        <time>2026-09-02T08:03:47Z</time>
      </trkpt>
      <trkpt lat="43.19778" lon="-1.35913">
        <ele>496.44</ele>
        <time>2026-09-02T08:04:08Z</time>
      </trkpt>
      <trkpt lat="43.1978" lon="-1.35926">
        <ele>498.6</ele>
        <time>2026-09-02T08:04:24Z</time>
      </trkpt>
      <trkpt lat="43.1978" lon="-1.35938">
        <ele>500.11</ele>
        <time>2026-09-02T08:04:39Z</time>
      </trkpt>
      <trkpt lat="43.19779" lon="-1.35952">
        <ele>501.47</ele>
        <time>2026-09-02T08:04:57Z</time>
      </trkpt>
      <trkpt lat="43.19772" lon="-1.35971">
        <ele>503.28</ele>
        <time>2026-09-02T08:05:17Z</time>
      </trkpt>
      <trkpt lat="43.19766" lon="-1.35986">
        <ele>503.89</ele>
        <time>2026-09-02T08:05:34Z</time>
      </trkpt>
      <trkpt lat="43.19765" lon="-1.35988">
        <ele>504.04</ele>
        <time>2026-09-02T08:05:36Z</time>
      </trkpt>
      <trkpt lat="43.1976" lon="-1.36001">
        <ele>504.14</ele>
        <time>2026-09-02T08:05:51Z</time>
      </trkpt>
      <trkpt lat="43.19756" lon="-1.36016">
        <ele>504.97</ele>
        <time>2026-09-02T08:06:07Z</time>
      </trkpt>
      <trkpt lat="43.1975" lon="-1.36034">
        <ele>506.06</ele>
        <time>2026-09-02T08:06:24Z</time>
      </trkpt>
      <trkpt lat="43.19751" lon="-1.36046">
        <ele>506.82</ele>
        <time>2026-09-02T08:06:36Z</time>
      </trkpt>
      <trkpt lat="43.19752" lon="-1.36054">
        <ele>508.12</ele>
        <time>2026-09-02T08:06:59Z</time>
      </trkpt>
      <trkpt lat="43.1975" lon="-1.36059">
        <ele>508.08</ele>
        <time>2026-09-02T08:07:27Z</time>
      </trkpt>
      <trkpt lat="43.19747" lon="-1.36062">
        <ele>508.2</ele>
        <time>2026-09-02T08:07:49Z</time>
      </trkpt>
      <trkpt lat="43.19747" lon="-1.36064">
        <ele>508.24</ele>
        <time>2026-09-02T08:08:15Z</time>
      </trkpt>
      <trkpt lat="43.19747" lon="-1.3606">
        <ele>507.86</ele>
        <time>2026-09-02T08:08:43Z</time>
      </trkpt>
      <trkpt lat="43.19746" lon="-1.36061">
        <ele>508.32</ele>
        <time>2026-09-02T08:09:09Z</time>
      </trkpt>
      <trkpt lat="43.19749" lon="-1.3606">
        <ele>508.12</ele>
        <time>2026-09-02T08:09:48Z</time>
      </trkpt>
      <trkpt lat="43.19748" lon="-1.36062">
        <ele>508.2</ele>
        <time>2026-09-02T08:10:05Z</time>
      </trkpt>
      <trkpt lat="43.19747" lon="-1.36059">
        <ele>507.93</ele>
        <time>2026-09-02T08:10:34Z</time>
      </trkpt>
      <trkpt lat="43.19749" lon="-1.36057">
        <ele>508.14</ele>
        <time>2026-09-02T08:10:36Z</time>
      </trkpt>
      <trkpt lat="43.19749" lon="-1.36057">
        <ele>508.11</ele>
        <time>2026-09-02T08:10:42Z</time>
      </trkpt>
      <trkpt lat="43.19747" lon="-1.36061">
        <ele>508.33</ele>
        <time>2026-09-02T08:11:13Z</time>
      </trkpt>
      <trkpt lat="43.19747" lon="-1.3606">
        <ele>508.14</ele>
        <time>2026-09-02T08:11:34Z</time>
      </trkpt>
      <trkpt lat="43.19749" lon="-1.3606">
        <ele>508.11</ele>
        <time>2026-09-02T08:11:58Z</time>
      </trkpt>
      <trkpt lat="43.19749" lon="-1.3606">
        <ele>508.42</ele>
        <time>2026-09-02T08:12:27Z</time>
      </trkpt>
      <trkpt lat="43.1975" lon="-1.3607">
        <ele>509.04</ele>
        <time>2026-09-02T08:12:39Z</time>
      </trkpt>
      <trkpt lat="43.19758" lon="-1.36084">
        <ele>510</ele>
        <time>2026-09-02T08:12:57Z</time>
      </trkpt>
      <trkpt lat="43.19762" lon="-1.36096">
        <ele>509.66</ele>
        <time>2026-09-02T08:13:13Z</time>
      </trkpt>
      <trkpt lat="43.19765" lon="-1.36122">
        <ele>509.38</ele>
        <time>2026-09-02T08:13:35Z</time>
      </trkpt>
      <trkpt lat="43.19767" lon="-1.36125">
        <ele>509.87</ele>
        <time>2026-09-02T08:13:56Z</time>
      </trkpt>
      <trkpt lat="43.19767" lon="-1.36122">
        <ele>509.89</ele>
        <time>2026-09-02T08:14:26Z</time>
      </trkpt>
      <trkpt lat="43.19768" lon="-1.36124">
        <ele>509.69</ele>
        <time>2026-09-02T08:15:00Z</time>
      </trkpt>
      <trkpt lat="43.19766" lon="-1.3612">
        <ele>510.07</ele>
        <time>2026-09-02T08:15:33Z</time>
      </trkpt>
      <trkpt lat="43.19766" lon="-1.36122">
        <ele>509.95</ele>
        <time>2026-09-02T08:16:04Z</time>
      </trkpt>
      <trkpt lat="43.19765" lon="-1.36123">
        <ele>510.08</ele>
        <time>2026-09-02T08:16:37Z</time>
      </trkpt>
      <trkpt lat="43.19767" lon="-1.36123">
        <ele>510.14</ele>
        <time>2026-09-02T08:17:04Z</time>
      </trkpt>
      <trkpt lat="43.19767" lon="-1.36123">
        <ele>510.38</ele>
        <time>2026-09-02T08:17:27Z</time>
      </trkpt>
      <trkpt lat="43.19767" lon="-1.36124">
        <ele>510.68</ele>
        <time>2026-09-02T08:17:55Z</time>
      </trkpt>
      <trkpt lat="43.19768" lon="-1.36125">
        <ele>510.93</ele>
        <time>2026-09-02T08:18:18Z</time>
      </trkpt>
      <trkpt lat="43.19765" lon="-1.36126">
        <ele>511.21</ele>
        <time>2026-09-02T08:18:45Z</time>
      </trkpt>
      <trkpt lat="43.19766" lon="-1.36126">
        <ele>510.96</ele>
        <time>2026-09-02T08:19:10Z</time>
      </trkpt>
      <trkpt lat="43.19765" lon="-1.36135">
        <ele>511.81</ele>
        <time>2026-09-02T08:19:34Z</time>
      </trkpt>
      <trkpt lat="43.1976" lon="-1.36153">
        <ele>514.47</ele>
        <time>2026-09-02T08:19:53Z</time>
      </trkpt>
      <trkpt lat="43.19757" lon="-1.36163">
        <ele>515.41</ele>
        <time>2026-09-02T08:20:12Z</time>
      </trkpt>
      <trkpt lat="43.19755" lon="-1.36178">
        <ele>516.13</ele>
        <time>2026-09-02T08:20:35Z</time>
      </trkpt>
      <trkpt lat="43.19756" lon="-1.36194">
        <ele>517.99</ele>
        <time>2026-09-02T08:20:51Z</time>
      </trkpt>
      <trkpt lat="43.19762" lon="-1.36206">
        <ele>519.18</ele>
        <time>2026-09-02T08:21:08Z</time>
      </trkpt>
      <trkpt lat="43.19767" lon="-1.36212">
        <ele>520.49</ele>
        <time>2026-09-02T08:21:20Z</time>
      </trkpt>
      <trkpt lat="43.19778" lon="-1.36227">
        <ele>521.65</ele>
        <time>2026-09-02T08:21:39Z</time>
      </trkpt>
      <trkpt lat="43.19786" lon="-1.36251">
        <ele>519.75</ele>
        <time>2026-09-02T08:22:02Z</time>
      </trkpt>
      <trkpt lat="43.1979" lon="-1.36259">
        <ele>520.19</ele>
        <time>2026-09-02T08:22:09Z</time>
      </trkpt>
      <trkpt lat="43.19794" lon="-1.36272">
        <ele>521.33</ele>
        <time>2026-09-02T08:22:22Z</time>
      </trkpt>
      <trkpt lat="43.19796" lon="-1.3628">
        <ele>521.77</ele>
        <time>2026-09-02T08:22:37Z</time>
      </trkpt>
      <trkpt lat="43.19798" lon="-1.36299">
        <ele>522.32</ele>
        <time>2026-09-02T08:22:54Z</time>
      </trkpt>
      <trkpt lat="43.198" lon="-1.36307">
        <ele>522.93</ele>
        <time>2026-09-02T08:23:09Z</time>
      </trkpt>
      <trkpt lat="43.19812" lon="-1.36331">
        <ele>523.53</ele>
        <time>2026-09-02T08:23:30Z</time>
      </trkpt>
      <trkpt lat="43.19812" lon="-1.36332">
        <ele>523.5</ele>
        <time>2026-09-02T08:23:31Z</time>
      </trkpt>
      <trkpt lat="43.19817" lon="-1.36345">
        <ele>523.89</ele>
        <time>2026-09-02T08:23:42Z</time>
      </trkpt>
      <trkpt lat="43.19819" lon="-1.36349">
        <ele>524.22</ele>
        <time>2026-09-02T08:23:46Z</time>
      </trkpt>
      <trkpt lat="43.19821" lon="-1.36357">
        <ele>524.47</ele>
        <time>2026-09-02T08:23:52Z</time>
      </trkpt>
      <trkpt lat="43.19822" lon="-1.36359">
        <ele>524.35</ele>
        <time>2026-09-02T08:23:54Z</time>
      </trkpt>
      <trkpt lat="43.19828" lon="-1.36373">
        <ele>525</ele>
        <time>2026-09-02T08:24:06Z</time>
      </trkpt>
      <trkpt lat="43.19833" lon="-1.36381">
        <ele>525.32</ele>
        <time>2026-09-02T08:24:14Z</time>
      </trkpt>
      <trkpt lat="43.19835" lon="-1.36389">
        <ele>525.49</ele>
        <time>2026-09-02T08:24:20Z</time>
      </trkpt>
      <trkpt lat="43.19837" lon="-1.36395">
        <ele>525.51</ele>
        <time>2026-09-02T08:24:25Z</time>
      </trkpt>
      <trkpt lat="43.1984" lon="-1.36403">
        <ele>526.04</ele>
        <time>2026-09-02T08:24:32Z</time>
      </trkpt>
      <trkpt lat="43.19843" lon="-1.36412">
        <ele>525.83</ele>
        <time>2026-09-02T08:24:40Z</time>
      </trkpt>
      <trkpt lat="43.19848" lon="-1.36432">
        <ele>526.36</ele>
        <time>2026-09-02T08:24:57Z</time>
      </trkpt>
      <trkpt lat="43.19849" lon="-1.36436">
        <ele>526.45</ele>
        <time>2026-09-02T08:25:00Z</time>
      </trkpt>
      <trkpt lat="43.19854" lon="-1.36447">
        <ele>526.73</ele>
        <time>2026-09-02T08:25:11Z</time>
      </trkpt>
      <trkpt lat="43.1986" lon="-1.3646">
        <ele>527.73</ele>
        <time>2026-09-02T08:25:25Z</time>
      </trkpt>
      <trkpt lat="43.19868" lon="-1.36476">
        <ele>529.52</ele>
        <time>2026-09-02T08:25:44Z</time>
      </trkpt>
      <trkpt lat="43.19871" lon="-1.36488">
        <ele>531.07</ele>
        <time>2026-09-02T08:26:02Z</time>
      </trkpt>
      <trkpt lat="43.19877" lon="-1.36497">
        <ele>532.69</ele>
        <time>2026-09-02T08:26:19Z</time>
      </trkpt>
      <trkpt lat="43.19881" lon="-1.3651">
        <ele>534.56</ele>
        <time>2026-09-02T08:26:36Z</time>
      </trkpt>
      <trkpt lat="43.1988" lon="-1.36526">
        <ele>536.21</ele>
        <time>2026-09-02T08:26:54Z</time>
      </trkpt>
      <trkpt lat="43.19877" lon="-1.36537">
        <ele>538.16</ele>
        <time>2026-09-02T08:27:11Z</time>
      </trkpt>
      <trkpt lat="43.19876" lon="-1.36547">
        <ele>539.32</ele>
        <time>2026-09-02T08:27:25Z</time>
      </trkpt>
      <trkpt lat="43.19873" lon="-1.36562">
        <ele>541.34</ele>
        <time>2026-09-02T08:27:44Z</time>
      </trkpt>
      <trkpt lat="43.19866" lon="-1.36579">
        <ele>542.44</ele>
        <time>2026-09-02T08:28:03Z</time>
      </trkpt>
      <trkpt lat="43.19865" lon="-1.36589">
        <ele>543.27</ele>
        <time>2026-09-02T08:28:13Z</time>
      </trkpt>
      <trkpt lat="43.19864" lon="-1.36592">
        <ele>543.38</ele>
        <time>2026-09-02T08:28:16Z</time>
      </trkpt>
      <trkpt lat="43.19862" lon="-1.36603">
        <ele>544.61</ele>
        <time>2026-09-02T08:28:29Z</time>
      </trkpt>
      <trkpt lat="43.1986" lon="-1.36616">
        <ele>546.76</ele>
        <time>2026-09-02T08:28:47Z</time>
      </trkpt>
      <trkpt lat="43.19858" lon="-1.36627">
        <ele>548.52</ele>
        <time>2026-09-02T08:28:59Z</time>
      </trkpt>
      <trkpt lat="43.19857" lon="-1.36646">
        <ele>550.26</ele>
        <time>2026-09-02T08:29:18Z</time>
      </trkpt>
      <trkpt lat="43.19853" lon="-1.36658">
        <ele>552.09</ele>
        <time>2026-09-02T08:29:36Z</time>
      </trkpt>
      <trkpt lat="43.19849" lon="-1.36671">
        <ele>553.02</ele>
        <time>2026-09-02T08:29:53Z</time>
      </trkpt>
      <trkpt lat="43.19846" lon="-1.3668">
        <ele>553.52</ele>
        <time>2026-09-02T08:30:09Z</time>
      </trkpt>
      <trkpt lat="43.19842" lon="-1.36697">
        <ele>555.6</ele>
        <time>2026-09-02T08:30:29Z</time>
      </trkpt>
      <trkpt lat="43.19838" lon="-1.36709">
        <ele>557.3</ele>
        <time>2026-09-02T08:30:44Z</time>
      </trkpt>
      <trkpt lat="43.19838" lon="-1.36711">
        <ele>557.52</ele>
        <time>2026-09-02T08:30:46Z</time>
      </trkpt>
      <trkpt lat="43.19836" lon="-1.36721">
        <ele>558.86</ele>
        <time>2026-09-02T08:30:57Z</time>
      </trkpt>
      <trkpt lat="43.19831" lon="-1.36738">
        <ele>560.52</ele>
        <time>2026-09-02T08:31:15Z</time>
      </trkpt>
      <trkpt lat="43.19829" lon="-1.3675">
        <ele>561.77</ele>
        <time>2026-09-02T08:31:29Z</time>
      </trkpt>
      <trkpt lat="43.19826" lon="-1.36763">
        <ele>562.36</ele>
        <time>2026-09-02T08:31:43Z</time>
      </trkpt>
      <trkpt lat="43.19822" lon="-1.36776">
        <ele>563.44</ele>
        <time>2026-09-02T08:31:58Z</time>
      </trkpt>
      <trkpt lat="43.19819" lon="-1.36789">
        <ele>566.24</ele>
        <time>2026-09-02T08:32:18Z</time>
      </trkpt>
      <trkpt lat="43.19814" lon="-1.36807">
        <ele>568.06</ele>
        <time>2026-09-02T08:32:36Z</time>
      </trkpt>
      <trkpt lat="43.19812" lon="-1.36815">
        <ele>568</ele>
        <time>2026-09-02T08:32:46Z</time>
      </trkpt>
      <trkpt lat="43.19811" lon="-1.36822">
        <ele>568.46</ele>
        <time>2026-09-02T08:32:57Z</time>
      </trkpt>
      <trkpt lat="43.1981" lon="-1.3683">
        <ele>568.96</ele>
        <time>2026-09-02T08:33:09Z</time>
      </trkpt>
      <trkpt lat="43.19806" lon="-1.36839">
        <ele>569.68</ele>
        <time>2026-09-02T08:33:18Z</time>
      </trkpt>
      <trkpt lat="43.19806" lon="-1.36842">
        <ele>569.8</ele>
        <time>2026-09-02T08:33:20Z</time>
      </trkpt>
      <trkpt lat="43.19806" lon="-1.36852">
        <ele>570.77</ele>
        <time>2026-09-02T08:33:30Z</time>
      </trkpt>
      <trkpt lat="43.19808" lon="-1.36866">
        <ele>571.34</ele>
        <time>2026-09-02T08:33:45Z</time>
      </trkpt>
      <trkpt lat="43.19808" lon="-1.36881">
        <ele>572.68</ele>
        <time>2026-09-02T08:34:02Z</time>
      </trkpt>
      <trkpt lat="43.19805" lon="-1.36893">
        <ele>573.34</ele>
        <time>2026-09-02T08:34:16Z</time>
      </trkpt>
      <trkpt lat="43.19796" lon="-1.36909">
        <ele>574.95</ele>
        <time>2026-09-02T08:34:32Z</time>
      </trkpt>
      <trkpt lat="43.19797" lon="-1.36917">
        <ele>576.83</ele>
        <time>2026-09-02T08:34:44Z</time>
      </trkpt>
      <trkpt lat="43.19796" lon="-1.36923">
        <ele>578.52</ele>
        <time>2026-09-02T08:34:57Z</time>
      </trkpt>
      <trkpt lat="43.19789" lon="-1.36941">
        <ele>580.96</ele>
        <time>2026-09-02T08:35:18Z</time>
      </trkpt>
      <trkpt lat="43.19787" lon="-1.36946">
        <ele>581.94</ele>
        <time>2026-09-02T08:35:25Z</time>
      </trkpt>
      <trkpt lat="43.19781" lon="-1.36951">
        <ele>583.11</ele>
        <time>2026-09-02T08:35:35Z</time>
      </trkpt>
      <trkpt lat="43.19782" lon="-1.36956">
        <ele>584.75</ele>
        <time>2026-09-02T08:35:47Z</time>
      </trkpt>
      <trkpt lat="43.1978" lon="-1.36965">
        <ele>585.5</ele>
        <time>2026-09-02T08:36:00Z</time>
      </trkpt>
      <trkpt lat="43.1978" lon="-1.36964">
        <ele>585.14</ele>
        <time>2026-09-02T08:36:02Z</time>
      </trkpt>
      <trkpt lat="43.19785" lon="-1.3696">
        <ele>583.49</ele>
        <time>2026-09-02T08:36:20Z</time>
      </trkpt>
      <trkpt lat="43.1979" lon="-1.36961">
        <ele>584.5</ele>
        <time>2026-09-02T08:36:38Z</time>
      </trkpt>
      <trkpt lat="43.19788" lon="-1.36963">
        <ele>585</ele>
        <time>2026-09-02T08:36:50Z</time>
      </trkpt>
      <trkpt lat="43.1979" lon="-1.3696">
        <ele>585.45</ele>
        <time>2026-09-02T08:37:56Z</time>
      </trkpt>
      <trkpt lat="43.19786" lon="-1.36959">
        <ele>585.57</ele>
        <time>2026-09-02T08:38:18Z</time>
      </trkpt>
      <trkpt lat="43.19787" lon="-1.36961">
        <ele>583.99</ele>
        <time>2026-09-02T08:38:32Z</time>
      </trkpt>
      <trkpt lat="43.19787" lon="-1.36961">
        <ele>585.52</ele>
        <time>2026-09-02T08:38:35Z</time>
      </trkpt>
      <trkpt lat="43.19788" lon="-1.36961">
        <ele>583.56</ele>
        <time>2026-09-02T08:38:59Z</time>
      </trkpt>
      <trkpt lat="43.19788" lon="-1.36962">
        <ele>585.24</ele>
        <time>2026-09-02T08:39:02Z</time>
      </trkpt>
      <trkpt lat="43.19788" lon="-1.36964">
        <ele>585.51</ele>
        <time>2026-09-02T08:39:09Z</time>
      </trkpt>
      <trkpt lat="43.19789" lon="-1.36965">
        <ele>586.51</ele>
        <time>2026-09-02T08:39:11Z</time>
      </trkpt>
      <trkpt lat="43.19788" lon="-1.36967">
        <ele>584.74</ele>
        <time>2026-09-02T08:39:13Z</time>
      </trkpt>
      <trkpt lat="43.19786" lon="-1.36962">
        <ele>585.17</ele>
        <time>2026-09-02T08:39:37Z</time>
      </trkpt>
      <trkpt lat="43.19786" lon="-1.36961">
        <ele>585.01</ele>
        <time>2026-09-02T08:40:08Z</time>
      </trkpt>
      <trkpt lat="43.19792" lon="-1.3696">
        <ele>585.2</ele>
        <time>2026-09-02T08:40:29Z</time>
      </trkpt>
      <trkpt lat="43.19789" lon="-1.36961">
        <ele>584.9</ele>
        <time>2026-09-02T08:40:33Z</time>
      </trkpt>
      <trkpt lat="43.19786" lon="-1.36962">
        <ele>585.24</ele>
        <time>2026-09-02T08:41:03Z</time>
      </trkpt>
      <trkpt lat="43.19787" lon="-1.36963">
        <ele>585.06</ele>
        <time>2026-09-02T08:41:33Z</time>
      </trkpt>
      <trkpt lat="43.19785" lon="-1.36965">
        <ele>585.29</ele>
        <time>2026-09-02T08:42:01Z</time>
      </trkpt>
      <trkpt lat="43.19785" lon="-1.36965">
        <ele>585.52</ele>
        <time>2026-09-02T08:42:03Z</time>
      </trkpt>
      <trkpt lat="43.19781" lon="-1.36979">
        <ele>586.61</ele>
        <time>2026-09-02T08:42:19Z</time>
      </trkpt>
      <trkpt lat="43.19785" lon="-1.3699">
        <ele>588.48</ele>
        <time>2026-09-02T08:42:38Z</time>
      </trkpt>
      <trkpt lat="43.19792" lon="-1.36999">
        <ele>591.3</ele>
        <time>2026-09-02T08:42:58Z</time>
      </trkpt>
      <trkpt lat="43.19796" lon="-1.37012">
        <ele>592.98</ele>
        <time>2026-09-02T08:43:17Z</time>
      </trkpt>
      <trkpt lat="43.19795" lon="-1.3703">
        <ele>595.81</ele>
        <time>2026-09-02T08:43:38Z</time>
      </trkpt>
      <trkpt lat="43.19795" lon="-1.37043">
        <ele>596.94</ele>
        <time>2026-09-02T08:43:54Z</time>
      </trkpt>
      <trkpt lat="43.19794" lon="-1.37053">
        <ele>597.32</ele>
        <time>2026-09-02T08:44:02Z</time>
      </trkpt>
      <trkpt lat="43.19794" lon="-1.37065">
        <ele>598.38</ele>
        <time>2026-09-02T08:44:18Z</time>
      </trkpt>
      <trkpt lat="43.19792" lon="-1.37079">
        <ele>600.18</ele>
        <time>2026-09-02T08:44:36Z</time>
      </trkpt>
      <trkpt lat="43.19789" lon="-1.3709">
        <ele>601.71</ele>
        <time>2026-09-02T08:44:49Z</time>
      </trkpt>
      <trkpt lat="43.19784" lon="-1.37104">
        <ele>603.38</ele>
        <time>2026-09-02T08:45:05Z</time>
      </trkpt>
      <trkpt lat="43.19783" lon="-1.37111">
        <ele>604.11</ele>
        <time>2026-09-02T08:45:15Z</time>
      </trkpt>
      <trkpt lat="43.19775" lon="-1.3712">
        <ele>605.61</ele>
        <time>2026-09-02T08:45:31Z</time>
      </trkpt>
      <trkpt lat="43.19765" lon="-1.3713">
        <ele>607.44</ele>
        <time>2026-09-02T08:45:49Z</time>
      </trkpt>
      <trkpt lat="43.19755" lon="-1.3714">
        <ele>609.15</ele>
        <time>2026-09-02T08:46:08Z</time>
      </trkpt>
      <trkpt lat="43.19751" lon="-1.37145">
        <ele>609.91</ele>
        <time>2026-09-02T08:46:25Z</time>
      </trkpt>
      <trkpt lat="43.19752" lon="-1.37145">
        <ele>610.33</ele>
        <time>2026-09-02T08:46:49Z</time>
      </trkpt>
      <trkpt lat="43.19751" lon="-1.37146">
        <ele>610.3</ele>
        <time>2026-09-02T08:47:20Z</time>
      </trkpt>
      <trkpt lat="43.1975" lon="-1.37151">
        <ele>610.74</ele>
        <time>2026-09-02T08:47:42Z</time>
      </trkpt>
      <trkpt lat="43.19757" lon="-1.3716">
        <ele>612.92</ele>
        <time>2026-09-02T08:48:01Z</time>
      </trkpt>
      <trkpt lat="43.19766" lon="-1.37147">
        <ele>614.89</ele>
        <time>2026-09-02T08:48:20Z</time>
      </trkpt>
      <trkpt lat="43.19775" lon="-1.37138">
        <ele>616.85</ele>
        <time>2026-09-02T08:48:37Z</time>
      </trkpt>
      <trkpt lat="43.19785" lon="-1.3713">
        <ele>618.66</ele>
        <time>2026-09-02T08:48:57Z</time>
      </trkpt>
      <trkpt lat="43.19796" lon="-1.37128">
        <ele>620.15</ele>
        <time>2026-09-02T08:49:14Z</time>
      </trkpt>
      <trkpt lat="43.19802" lon="-1.37122">
        <ele>620.6</ele>
        <time>2026-09-02T08:49:24Z</time>
      </trkpt>
      <trkpt lat="43.19806" lon="-1.37113">
        <ele>621.09</ele>
        <time>2026-09-02T08:49:34Z</time>
      </trkpt>
      <trkpt lat="43.1981" lon="-1.37108">
        <ele>621.63</ele>
        <time>2026-09-02T08:49:43Z</time>
      </trkpt>
      <trkpt lat="43.19817" lon="-1.37105">
        <ele>623.21</ele>
        <time>2026-09-02T08:49:58Z</time>
      </trkpt>
      <trkpt lat="43.19817" lon="-1.37117">
        <ele>624.39</ele>
        <time>2026-09-02T08:50:10Z</time>
      </trkpt>
      <trkpt lat="43.19814" lon="-1.37122">
        <ele>624.54</ele>
        <time>2026-09-02T08:50:16Z</time>
      </trkpt>
      <trkpt lat="43.19807" lon="-1.37134">
        <ele>624.98</ele>
        <time>2026-09-02T08:50:30Z</time>
      </trkpt>
      <trkpt lat="43.19799" lon="-1.37139">
        <ele>624.76</ele>
        <time>2026-09-02T08:50:41Z</time>
      </trkpt>
      <trkpt lat="43.19796" lon="-1.37141">
        <ele>624.57</ele>
        <time>2026-09-02T08:50:45Z</time>
      </trkpt>
      <trkpt lat="43.19787" lon="-1.37153">
        <ele>625.22</ele>
        <time>2026-09-02T08:51:00Z</time>
      </trkpt>
      <trkpt lat="43.19783" lon="-1.37166">
        <ele>628.24</ele>
        <time>2026-09-02T08:51:17Z</time>
      </trkpt>
      <trkpt lat="43.19784" lon="-1.37173">
        <ele>629.65</ele>
        <time>2026-09-02T08:51:28Z</time>
      </trkpt>
      <trkpt lat="43.19778" lon="-1.37184">
        <ele>631.93</ele>
        <time>2026-09-02T08:51:49Z</time>
      </trkpt>
      <trkpt lat="43.19776" lon="-1.37195">
        <ele>633.99</ele>
        <time>2026-09-02T08:52:04Z</time>
      </trkpt>
      <trkpt lat="43.19775" lon="-1.37212">
        <ele>635.3</ele>
        <time>2026-09-02T08:52:23Z</time>
      </trkpt>
      <trkpt lat="43.19772" lon="-1.37224">
        <ele>636.67</ele>
        <time>2026-09-02T08:52:38Z</time>
      </trkpt>
      <trkpt lat="43.19766" lon="-1.37237">
        <ele>638.61</ele>
        <time>2026-09-02T08:52:59Z</time>
      </trkpt>
      <trkpt lat="43.1976" lon="-1.37248">
        <ele>641.03</ele>
        <time>2026-09-02T08:53:17Z</time>
      </trkpt>
      <trkpt lat="43.19755" lon="-1.3726">
        <ele>643.18</ele>
        <time>2026-09-02T08:53:36Z</time>
      </trkpt>
      <trkpt lat="43.19748" lon="-1.37272">
        <ele>644.71</ele>
        <time>2026-09-02T08:53:53Z</time>
      </trkpt>
      <trkpt lat="43.19739" lon="-1.37281">
        <ele>646.88</ele>
        <time>2026-09-02T08:54:12Z</time>
      </trkpt>
      <trkpt lat="43.19737" lon="-1.3728">
        <ele>647.32</ele>
        <time>2026-09-02T08:54:37Z</time>
      </trkpt>
      <trkpt lat="43.19735" lon="-1.37291">
        <ele>648.03</ele>
        <time>2026-09-02T08:54:54Z</time>
      </trkpt>
      <trkpt lat="43.19732" lon="-1.37294">
        <ele>647.56</ele>
        <time>2026-09-02T08:55:18Z</time>
      </trkpt>
      <trkpt lat="43.19734" lon="-1.37292">
        <ele>646.86</ele>
        <time>2026-09-02T08:55:47Z</time>
      </trkpt>
      <trkpt lat="43.19725" lon="-1.37292">
        <ele>646.84</ele>
        <time>2026-09-02T08:56:28Z</time>
      </trkpt>
      <trkpt lat="43.19728" lon="-1.37295">
        <ele>646.92</ele>
        <time>2026-09-02T08:57:07Z</time>
      </trkpt>
      <trkpt lat="43.19732" lon="-1.37294">
        <ele>646.87</ele>
        <time>2026-09-02T08:57:15Z</time>
      </trkpt>
      <trkpt lat="43.1974" lon="-1.3729">
        <ele>647.03</ele>
        <time>2026-09-02T08:57:34Z</time>
      </trkpt>
      <trkpt lat="43.19748" lon="-1.37283">
        <ele>647.87</ele>
        <time>2026-09-02T08:57:51Z</time>
      </trkpt>
      <trkpt lat="43.19755" lon="-1.37274">
        <ele>649.86</ele>
        <time>2026-09-02T08:58:08Z</time>
      </trkpt>
      <trkpt lat="43.19761" lon="-1.37269">
        <ele>651.55</ele>
        <time>2026-09-02T08:58:25Z</time>
      </trkpt>
      <trkpt lat="43.19769" lon="-1.37265">
        <ele>653.26</ele>
        <time>2026-09-02T08:58:40Z</time>
      </trkpt>
      <trkpt lat="43.19779" lon="-1.37263">
        <ele>654.56</ele>
        <time>2026-09-02T08:58:55Z</time>
      </trkpt>
      <trkpt lat="43.1979" lon="-1.37256">
        <ele>655.72</ele>
        <time>2026-09-02T08:59:12Z</time>
      </trkpt>
      <trkpt lat="43.19798" lon="-1.37249">
        <ele>656.83</ele>
        <time>2026-09-02T08:59:27Z</time>
      </trkpt>
      <trkpt lat="43.19801" lon="-1.37239">
        <ele>658.33</ele>
        <time>2026-09-02T08:59:44Z</time>
      </trkpt>
      <trkpt lat="43.19809" lon="-1.3723">
        <ele>659.58</ele>
        <time>2026-09-02T09:00:03Z</time>
      </trkpt>
      <trkpt lat="43.19815" lon="-1.37224">
        <ele>660.87</ele>
        <time>2026-09-02T09:00:15Z</time>
      </trkpt>
      <trkpt lat="43.19818" lon="-1.37216">
        <ele>662.47</ele>
        <time>2026-09-02T09:00:31Z</time>
      </trkpt>
      <trkpt lat="43.19822" lon="-1.37209">
        <ele>663.66</ele>
        <time>2026-09-02T09:00:44Z</time>
      </trkpt>
      <trkpt lat="43.19823" lon="-1.37206">
        <ele>664.73</ele>
        <time>2026-09-02T09:01:02Z</time>
      </trkpt>
      <trkpt lat="43.19825" lon="-1.37198">
        <ele>665.82</ele>
        <time>2026-09-02T09:01:21Z</time>
      </trkpt>
      <trkpt lat="43.19831" lon="-1.3719">
        <ele>668.02</ele>
        <time>2026-09-02T09:01:39Z</time>
      </trkpt>
      <trkpt lat="43.19836" lon="-1.37188">
        <ele>668.73</ele>
        <time>2026-09-02T09:02:01Z</time>
      </trkpt>
      <trkpt lat="43.19842" lon="-1.37179">
        <ele>671.21</ele>
        <time>2026-09-02T09:02:18Z</time>
      </trkpt>
      <trkpt lat="43.19847" lon="-1.37173">
        <ele>673.19</ele>
        <time>2026-09-02T09:02:36Z</time>
      </trkpt>
      <trkpt lat="43.19851" lon="-1.37165">
        <ele>675.14</ele>
        <time>2026-09-02T09:02:53Z</time>
      </trkpt>
      <trkpt lat="43.19855" lon="-1.37162">
        <ele>675.62</ele>
        <time>2026-09-02T09:03:11Z</time>
      </trkpt>
      <trkpt lat="43.1986" lon="-1.37157">
        <ele>677.54</ele>
        <time>2026-09-02T09:03:25Z</time>
      </trkpt>
      <trkpt lat="43.19865" lon="-1.3715">
        <ele>679.46</ele>
        <time>2026-09-02T09:03:41Z</time>
      </trkpt>
      <trkpt lat="43.19868" lon="-1.37145">
        <ele>680.74</ele>
        <time>2026-09-02T09:03:56Z</time>
      </trkpt>
      <trkpt lat="43.19872" lon="-1.37144">
        <ele>682.38</ele>
        <time>2026-09-02T09:04:11Z</time>
      </trkpt>
      <trkpt lat="43.19877" lon="-1.37137">
        <ele>683.35</ele>
        <time>2026-09-02T09:04:33Z</time>
      </trkpt>
      <trkpt lat="43.19879" lon="-1.37134">
        <ele>684.31</ele>
        <time>2026-09-02T09:04:52Z</time>
      </trkpt>
      <trkpt lat="43.19886" lon="-1.37126">
        <ele>686.21</ele>
        <time>2026-09-02T09:05:10Z</time>
      </trkpt>
      <trkpt lat="43.1989" lon="-1.37118">
        <ele>687.89</ele>
        <time>2026-09-02T09:05:26Z</time>
      </trkpt>
      <trkpt lat="43.19893" lon="-1.37115">
        <ele>691.14</ele>
        <time>2026-09-02T09:05:42Z</time>
      </trkpt>
      <trkpt lat="43.19897" lon="-1.37108">
        <ele>689.89</ele>
        <time>2026-09-02T09:06:04Z</time>
      </trkpt>
      <trkpt lat="43.19902" lon="-1.37098">
        <ele>691.4</ele>
        <time>2026-09-02T09:06:22Z</time>
      </trkpt>
      <trkpt lat="43.19908" lon="-1.37089">
        <ele>693.25</ele>
        <time>2026-09-02T09:06:37Z</time>
      </trkpt>
      <trkpt lat="43.19908" lon="-1.37081">
        <ele>694.65</ele>
        <time>2026-09-02T09:06:51Z</time>
      </trkpt>
      <trkpt lat="43.19912" lon="-1.37073">
        <ele>696.71</ele>
        <time>2026-09-02T09:07:11Z</time>
      </trkpt>
      <trkpt lat="43.19916" lon="-1.37062">
        <ele>699.44</ele>
        <time>2026-09-02T09:07:30Z</time>
      </trkpt>
      <trkpt lat="43.19917" lon="-1.37061">
        <ele>700.04</ele>
        <time>2026-09-02T09:07:46Z</time>
      </trkpt>
      <trkpt lat="43.19921" lon="-1.37067">
        <ele>700.94</ele>
        <time>2026-09-02T09:08:10Z</time>
      </trkpt>
      <trkpt lat="43.19925" lon="-1.37077">
        <ele>702.98</ele>
        <time>2026-09-02T09:08:28Z</time>
      </trkpt>
      <trkpt lat="43.19927" lon="-1.37087">
        <ele>704.24</ele>
        <time>2026-09-02T09:08:41Z</time>
      </trkpt>
      <trkpt lat="43.19929" lon="-1.37104">
        <ele>705.63</ele>
        <time>2026-09-02T09:08:58Z</time>
      </trkpt>
      <trkpt lat="43.19936" lon="-1.37115">
        <ele>706.95</ele>
        <time>2026-09-02T09:09:16Z</time>
      </trkpt>
      <trkpt lat="43.19938" lon="-1.37111">
        <ele>706.8</ele>
        <time>2026-09-02T09:09:36Z</time>
      </trkpt>
      <trkpt lat="43.19937" lon="-1.3711">
        <ele>706.92</ele>
        <time>2026-09-02T09:09:57Z</time>
      </trkpt>
      <trkpt lat="43.19936" lon="-1.37111">
        <ele>706.67</ele>
        <time>2026-09-02T09:10:27Z</time>
      </trkpt>
      <trkpt lat="43.19939" lon="-1.37109">
        <ele>706.93</ele>
        <time>2026-09-02T09:10:54Z</time>
      </trkpt>
      <trkpt lat="43.19942" lon="-1.37109">
        <ele>706.34</ele>
        <time>2026-09-02T09:11:35Z</time>
      </trkpt>
      <trkpt lat="43.19938" lon="-1.37109">
        <ele>706.25</ele>
        <time>2026-09-02T09:12:00Z</time>
      </trkpt>
      <trkpt lat="43.19938" lon="-1.37109">
        <ele>706.36</ele>
        <time>2026-09-02T09:12:31Z</time>
      </trkpt>
      <trkpt lat="43.19936" lon="-1.37108">
        <ele>707.18</ele>
        <time>2026-09-02T09:13:01Z</time>
      </trkpt>
      <trkpt lat="43.19937" lon="-1.37109">
        <ele>707.05</ele>
        <time>2026-09-02T09:13:35Z</time>
      </trkpt>
      <trkpt lat="43.19933" lon="-1.37114">
        <ele>706.94</ele>
        <time>2026-09-02T09:14:04Z</time>
      </trkpt>
      <trkpt lat="43.19934" lon="-1.37111">
        <ele>707.37</ele>
        <time>2026-09-02T09:14:11Z</time>
      </trkpt>
      <trkpt lat="43.19936" lon="-1.37104">
        <ele>707.4</ele>
        <time>2026-09-02T09:14:44Z</time>
      </trkpt>
      <trkpt lat="43.19937" lon="-1.37107">
        <ele>707.61</ele>
        <time>2026-09-02T09:15:17Z</time>
      </trkpt>
      <trkpt lat="43.19938" lon="-1.37106">
        <ele>707.7</ele>
        <time>2026-09-02T09:15:38Z</time>
      </trkpt>
      <trkpt lat="43.19939" lon="-1.37117">
        <ele>709.6</ele>
        <time>2026-09-02T09:15:58Z</time>
      </trkpt>
      <trkpt lat="43.19939" lon="-1.3713">
        <ele>711.37</ele>
        <time>2026-09-02T09:16:13Z</time>
      </trkpt>
      <trkpt lat="43.19941" lon="-1.37132">
        <ele>711.91</ele>
        <time>2026-09-02T09:16:29Z</time>
      </trkpt>
      <trkpt lat="43.19944" lon="-1.37137">
        <ele>713.47</ele>
        <time>2026-09-02T09:16:43Z</time>
      </trkpt>
      <trkpt lat="43.19943" lon="-1.37143">
        <ele>715.26</ele>
        <time>2026-09-02T09:17:02Z</time>
      </trkpt>
      <trkpt lat="43.19941" lon="-1.3715">
        <ele>716.95</ele>
        <time>2026-09-02T09:17:19Z</time>
      </trkpt>
      <trkpt lat="43.19937" lon="-1.37157">
        <ele>718.46</ele>
        <time>2026-09-02T09:17:39Z</time>
      </trkpt>
      <trkpt lat="43.19934" lon="-1.37159">
        <ele>719.25</ele>
        <time>2026-09-02T09:17:57Z</time>
      </trkpt>
      <trkpt lat="43.19932" lon="-1.37166">
        <ele>720.18</ele>
        <time>2026-09-02T09:18:23Z</time>
      </trkpt>
      <trkpt lat="43.1993" lon="-1.37175">
        <ele>722.01</ele>
        <time>2026-09-02T09:18:42Z</time>
      </trkpt>
      <trkpt lat="43.1993" lon="-1.37182">
        <ele>723.73</ele>
        <time>2026-09-02T09:19:01Z</time>
      </trkpt>
      <trkpt lat="43.19928" lon="-1.37189">
        <ele>725.82</ele>
        <time>2026-09-02T09:19:18Z</time>
      </trkpt>
      <trkpt lat="43.19926" lon="-1.37197">
        <ele>727.66</ele>
        <time>2026-09-02T09:19:40Z</time>
      </trkpt>
      <trkpt lat="43.19924" lon="-1.37205">
        <ele>729.68</ele>
        <time>2026-09-02T09:19:59Z</time>
      </trkpt>
      <trkpt lat="43.19926" lon="-1.37216">
        <ele>732.07</ele>
        <time>2026-09-02T09:20:19Z</time>
      </trkpt>
      <trkpt lat="43.19925" lon="-1.37219">
        <ele>733.26</ele>
        <time>2026-09-02T09:20:36Z</time>
      </trkpt>
      <trkpt lat="43.19928" lon="-1.37225">
        <ele>734.06</ele>
        <time>2026-09-02T09:21:01Z</time>
      </trkpt>
      <trkpt lat="43.19929" lon="-1.37239">
        <ele>735.15</ele>
        <time>2026-09-02T09:21:18Z</time>
      </trkpt>
      <trkpt lat="43.19926" lon="-1.37254">
        <ele>736.25</ele>
        <time>2026-09-02T09:21:37Z</time>
      </trkpt>
      <trkpt lat="43.19924" lon="-1.37263">
        <ele>737.55</ele>
        <time>2026-09-02T09:21:55Z</time>
      </trkpt>
      <trkpt lat="43.19921" lon="-1.37272">
        <ele>738.7</ele>
        <time>2026-09-02T09:22:13Z</time>
      </trkpt>
      <trkpt lat="43.19919" lon="-1.37279">
        <ele>740.87</ele>
        <time>2026-09-02T09:22:30Z</time>
      </trkpt>
      <trkpt lat="43.19919" lon="-1.3729">
        <ele>742.13</ele>
        <time>2026-09-02T09:22:48Z</time>
      </trkpt>
      <trkpt lat="43.19915" lon="-1.37306">
        <ele>743.33</ele>
        <time>2026-09-02T09:23:07Z</time>
      </trkpt>
      <trkpt lat="43.19907" lon="-1.37317">
        <ele>745.22</ele>
        <time>2026-09-02T09:23:28Z</time>
      </trkpt>
      <trkpt lat="43.19902" lon="-1.37325">
        <ele>746.22</ele>
        <time>2026-09-02T09:23:46Z</time>
      </trkpt>
      <trkpt lat="43.19897" lon="-1.37333">
        <ele>746.61</ele>
        <time>2026-09-02T09:24:12Z</time>
      </trkpt>
      <trkpt lat="43.19893" lon="-1.37344">
        <ele>748.35</ele>
        <time>2026-09-02T09:24:29Z</time>
      </trkpt>
      <trkpt lat="43.19884" lon="-1.37357">
        <ele>750.29</ele>
        <time>2026-09-02T09:24:48Z</time>
      </trkpt>
      <trkpt lat="43.19878" lon="-1.37368">
        <ele>751.31</ele>
        <time>2026-09-02T09:25:05Z</time>
      </trkpt>
      <trkpt lat="43.19874" lon="-1.37378">
        <ele>752.16</ele>
        <time>2026-09-02T09:25:24Z</time>
      </trkpt>
      <trkpt lat="43.19873" lon="-1.37394">
        <ele>752.67</ele>
        <time>2026-09-02T09:25:41Z</time>
      </trkpt>
      <trkpt lat="43.1987" lon="-1.37406">
        <ele>754</ele>
        <time>2026-09-02T09:25:57Z</time>
      </trkpt>
      <trkpt lat="43.19868" lon="-1.37421">
        <ele>756.09</ele>
        <time>2026-09-02T09:26:18Z</time>
      </trkpt>
      <trkpt lat="43.19864" lon="-1.37431">
        <ele>757.57</ele>
        <time>2026-09-02T09:26:35Z</time>
      </trkpt>
      <trkpt lat="43.19861" lon="-1.37444">
        <ele>759.63</ele>
        <time>2026-09-02T09:26:54Z</time>
      </trkpt>
      <trkpt lat="43.19857" lon="-1.37454">
        <ele>761.77</ele>
        <time>2026-09-02T09:27:13Z</time>
      </trkpt>
      <trkpt lat="43.19855" lon="-1.37464">
        <ele>763.88</ele>
        <time>2026-09-02T09:27:31Z</time>
      </trkpt>
      <trkpt lat="43.19855" lon="-1.37473">
        <ele>766.44</ele>
        <time>2026-09-02T09:27:48Z</time>
      </trkpt>
      <trkpt lat="43.19854" lon="-1.37472">
        <ele>766.62</ele>
        <time>2026-09-02T09:28:06Z</time>
      </trkpt>
      <trkpt lat="43.19855" lon="-1.37473">
        <ele>766.44</ele>
        <time>2026-09-02T09:28:42Z</time>
      </trkpt>
      <trkpt lat="43.19855" lon="-1.37471">
        <ele>766.95</ele>
        <time>2026-09-02T09:29:10Z</time>
      </trkpt>
      <trkpt lat="43.19853" lon="-1.37472">
        <ele>766.11</ele>
        <time>2026-09-02T09:29:40Z</time>
      </trkpt>
      <trkpt lat="43.19852" lon="-1.37472">
        <ele>766.9</ele>
        <time>2026-09-02T09:30:10Z</time>
      </trkpt>
      <trkpt lat="43.19852" lon="-1.37472">
        <ele>767.16</ele>
        <time>2026-09-02T09:30:37Z</time>
      </trkpt>
      <trkpt lat="43.1985" lon="-1.37473">
        <ele>767.23</ele>
        <time>2026-09-02T09:31:04Z</time>
      </trkpt>
      <trkpt lat="43.19851" lon="-1.3747">
        <ele>767.34</ele>
        <time>2026-09-02T09:31:42Z</time>
      </trkpt>
      <trkpt lat="43.19851" lon="-1.37471">
        <ele>767.48</ele>
        <time>2026-09-02T09:32:24Z</time>
      </trkpt>
      <trkpt lat="43.19851" lon="-1.37472">
        <ele>767.37</ele>
        <time>2026-09-02T09:32:40Z</time>
      </trkpt>
      <trkpt lat="43.19852" lon="-1.3747">
        <ele>767.45</ele>
        <time>2026-09-02T09:33:08Z</time>
      </trkpt>
      <trkpt lat="43.19852" lon="-1.3747">
        <ele>768.07</ele>
        <time>2026-09-02T09:33:31Z</time>
      </trkpt>
      <trkpt lat="43.19853" lon="-1.37483">
        <ele>770.36</ele>
        <time>2026-09-02T09:33:50Z</time>
      </trkpt>
      <trkpt lat="43.19856" lon="-1.37498">
        <ele>771.94</ele>
        <time>2026-09-02T09:34:09Z</time>
      </trkpt>
      <trkpt lat="43.19856" lon="-1.3751">
        <ele>773.58</ele>
        <time>2026-09-02T09:34:27Z</time>
      </trkpt>
      <trkpt lat="43.19852" lon="-1.37521">
        <ele>776.67</ele>
        <time>2026-09-02T09:34:45Z</time>
      </trkpt>
      <trkpt lat="43.19852" lon="-1.37531">
        <ele>777.88</ele>
        <time>2026-09-02T09:35:02Z</time>
      </trkpt>
      <trkpt lat="43.19853" lon="-1.37542">
        <ele>779.46</ele>
        <time>2026-09-02T09:35:20Z</time>
      </trkpt>
      <trkpt lat="43.1985" lon="-1.37553">
        <ele>781.63</ele>
        <time>2026-09-02T09:35:41Z</time>
      </trkpt>
      <trkpt lat="43.1985" lon="-1.37562">
        <ele>783.44</ele>
        <time>2026-09-02T09:36:00Z</time>
      </trkpt>
      <trkpt lat="43.1985" lon="-1.37568">
        <ele>785.1</ele>
        <time>2026-09-02T09:36:17Z</time>
      </trkpt>
      <trkpt lat="43.19847" lon="-1.37576">
        <ele>786.39</ele>
        <time>2026-09-02T09:36:32Z</time>
      </trkpt>
      <trkpt lat="43.19844" lon="-1.37584">
        <ele>788.23</ele>
        <time>2026-09-02T09:36:49Z</time>
      </trkpt>
      <trkpt lat="43.19844" lon="-1.37596">
        <ele>790.4</ele>
        <time>2026-09-02T09:37:11Z</time>
      </trkpt>
      <trkpt lat="43.19845" lon="-1.37605">
        <ele>792.02</ele>
        <time>2026-09-02T09:37:26Z</time>
      </trkpt>
      <trkpt lat="43.19844" lon="-1.37617">
        <ele>794.09</ele>
        <time>2026-09-02T09:37:47Z</time>
      </trkpt>
      <trkpt lat="43.19845" lon="-1.37627">
        <ele>795.86</ele>
        <time>2026-09-02T09:38:05Z</time>
      </trkpt>
      <trkpt lat="43.19841" lon="-1.37637">
        <ele>798.07</ele>
        <time>2026-09-02T09:38:22Z</time>
      </trkpt>
      <trkpt lat="43.19837" lon="-1.37649">
        <ele>799.86</ele>
        <time>2026-09-02T09:38:39Z</time>
      </trkpt>
      <trkpt lat="43.19836" lon="-1.37651">
        <ele>800.38</ele>
        <time>2026-09-02T09:39:04Z</time>
      </trkpt>
      <trkpt lat="43.19838" lon="-1.37659">
        <ele>802.62</ele>
        <time>2026-09-02T09:39:21Z</time>
      </trkpt>
      <trkpt lat="43.19838" lon="-1.37671">
        <ele>804.27</ele>
        <time>2026-09-02T09:39:39Z</time>
      </trkpt>
      <trkpt lat="43.19841" lon="-1.37682">
        <ele>806.04</ele>
        <time>2026-09-02T09:39:57Z</time>
      </trkpt>
      <trkpt lat="43.19846" lon="-1.37693">
        <ele>807.77</ele>
        <time>2026-09-02T09:40:16Z</time>
      </trkpt>
      <trkpt lat="43.19851" lon="-1.37703">
        <ele>809.25</ele>
        <time>2026-09-02T09:40:34Z</time>
      </trkpt>
      <trkpt lat="43.19853" lon="-1.37714">
        <ele>811.5</ele>
        <time>2026-09-02T09:40:55Z</time>
      </trkpt>
      <trkpt lat="43.19855" lon="-1.37725">
        <ele>813.56</ele>
        <time>2026-09-02T09:41:10Z</time>
      </trkpt>
      <trkpt lat="43.19854" lon="-1.37738">
        <ele>815.09</ele>
        <time>2026-09-02T09:41:31Z</time>
      </trkpt>
      <trkpt lat="43.19854" lon="-1.37739">
        <ele>814.89</ele>
        <time>2026-09-02T09:41:33Z</time>
      </trkpt>
      <trkpt lat="43.19857" lon="-1.37752">
        <ele>816.69</ele>
        <time>2026-09-02T09:41:51Z</time>
      </trkpt>
      <trkpt lat="43.19856" lon="-1.37759">
        <ele>817.95</ele>
        <time>2026-09-02T09:42:00Z</time>
      </trkpt>
      <trkpt lat="43.19855" lon="-1.37766">
        <ele>819.91</ele>
        <time>2026-09-02T09:42:15Z</time>
      </trkpt>
      <trkpt lat="43.19855" lon="-1.37772">
        <ele>821.32</ele>
        <time>2026-09-02T09:42:29Z</time>
      </trkpt>
      <trkpt lat="43.19855" lon="-1.37786">
        <ele>823.36</ele>
        <time>2026-09-02T09:42:44Z</time>
      </trkpt>
      <trkpt lat="43.19853" lon="-1.37798">
        <ele>824.76</ele>
        <time>2026-09-02T09:43:03Z</time>
      </trkpt>
      <trkpt lat="43.19851" lon="-1.3781">
        <ele>826.21</ele>
        <time>2026-09-02T09:43:20Z</time>
      </trkpt>
      <trkpt lat="43.19847" lon="-1.3782">
        <ele>827.54</ele>
        <time>2026-09-02T09:43:41Z</time>
      </trkpt>
      <trkpt lat="43.19846" lon="-1.37836">
        <ele>829.32</ele>
        <time>2026-09-02T09:44:01Z</time>
      </trkpt>
      <trkpt lat="43.19848" lon="-1.37846">
        <ele>830.58</ele>
        <time>2026-09-02T09:44:19Z</time>
      </trkpt>
      <trkpt lat="43.19861" lon="-1.37856">
        <ele>831.54</ele>
        <time>2026-09-02T09:44:39Z</time>
      </trkpt>
      <trkpt lat="43.19861" lon="-1.37857">
        <ele>830.85</ele>
        <time>2026-09-02T09:44:59Z</time>
      </trkpt>
      <trkpt lat="43.19863" lon="-1.37859">
        <ele>830.91</ele>
        <time>2026-09-02T09:45:26Z</time>
      </trkpt>
      <trkpt lat="43.19866" lon="-1.37856">
        <ele>831.65</ele>
        <time>2026-09-02T09:45:51Z</time>
      </trkpt>
      <trkpt lat="43.19865" lon="-1.37856">
        <ele>831.23</ele>
        <time>2026-09-02T09:46:07Z</time>
      </trkpt>
      <trkpt lat="43.19866" lon="-1.3785">
        <ele>831.48</ele>
        <time>2026-09-02T09:46:26Z</time>
      </trkpt>
      <trkpt lat="43.19852" lon="-1.3785">
        <ele>831.23</ele>
        <time>2026-09-02T09:46:45Z</time>
      </trkpt>
      <trkpt lat="43.19845" lon="-1.37838">
        <ele>830.1</ele>
        <time>2026-09-02T09:47:03Z</time>
      </trkpt>
      <trkpt lat="43.19845" lon="-1.3783">
        <ele>829.76</ele>
        <time>2026-09-02T09:47:24Z</time>
      </trkpt>
      <trkpt lat="43.19847" lon="-1.37831">
        <ele>826.4</ele>
        <time>2026-09-02T09:47:39Z</time>
      </trkpt>
      <trkpt lat="43.19847" lon="-1.37831">
        <ele>827.19</ele>
        <time>2026-09-02T09:47:40Z</time>
      </trkpt>
      <trkpt lat="43.19847" lon="-1.37831">
        <ele>831.39</ele>
        <time>2026-09-02T09:47:41Z</time>
      </trkpt>
      <trkpt lat="43.19847" lon="-1.37831">
        <ele>830.85</ele>
        <time>2026-09-02T09:47:42Z</time>
      </trkpt>
      <trkpt lat="43.19848" lon="-1.37832">
        <ele>829.53</ele>
        <time>2026-09-02T09:47:44Z</time>
      </trkpt>
      <trkpt lat="43.19849" lon="-1.37832">
        <ele>829.91</ele>
        <time>2026-09-02T09:48:02Z</time>
      </trkpt>
      <trkpt lat="43.19849" lon="-1.37832">
        <ele>829.67</ele>
        <time>2026-09-02T09:48:08Z</time>
      </trkpt>
      <trkpt lat="43.19849" lon="-1.37832">
        <ele>830.4</ele>
        <time>2026-09-02T09:48:13Z</time>
      </trkpt>
      <trkpt lat="43.19849" lon="-1.37832">
        <ele>821.86</ele>
        <time>2026-09-02T09:48:15Z</time>
      </trkpt>
      <trkpt lat="43.19849" lon="-1.37832">
        <ele>829.48</ele>
        <time>2026-09-02T09:48:16Z</time>
      </trkpt>
      <trkpt lat="43.19848" lon="-1.37833">
        <ele>835.17</ele>
        <time>2026-09-02T09:48:17Z</time>
      </trkpt>
      <trkpt lat="43.19848" lon="-1.37833">
        <ele>831.73</ele>
        <time>2026-09-02T09:48:18Z</time>
      </trkpt>
      <trkpt lat="43.19848" lon="-1.37833">
        <ele>827.85</ele>
        <time>2026-09-02T09:48:19Z</time>
      </trkpt>
      <trkpt lat="43.19848" lon="-1.37834">
        <ele>829.26</ele>
        <time>2026-09-02T09:48:20Z</time>
      </trkpt>
      <trkpt lat="43.19848" lon="-1.37834">
        <ele>830.05</ele>
        <time>2026-09-02T09:48:50Z</time>
      </trkpt>
      <trkpt lat="43.19848" lon="-1.37834">
        <ele>830.08</ele>
        <time>2026-09-02T09:49:10Z</time>
      </trkpt>
      <trkpt lat="43.19849" lon="-1.37833">
        <ele>831.06</ele>
        <time>2026-09-02T09:49:19Z</time>
      </trkpt>
      <trkpt lat="43.19848" lon="-1.37832">
        <ele>830.24</ele>
        <time>2026-09-02T09:49:47Z</time>
      </trkpt>
      <trkpt lat="43.19846" lon="-1.37832">
        <ele>830.28</ele>
        <time>2026-09-02T09:50:25Z</time>
      </trkpt>
      <trkpt lat="43.19847" lon="-1.37832">
        <ele>830.29</ele>
        <time>2026-09-02T09:50:55Z</time>
      </trkpt>
      <trkpt lat="43.19846" lon="-1.37831">
        <ele>830.53</ele>
        <time>2026-09-02T09:51:29Z</time>
      </trkpt>
      <trkpt lat="43.19846" lon="-1.37831">
        <ele>830.67</ele>
        <time>2026-09-02T09:51:59Z</time>
      </trkpt>
      <trkpt lat="43.19848" lon="-1.37828">
        <ele>830.49</ele>
        <time>2026-09-02T09:52:35Z</time>
      </trkpt>
      <trkpt lat="43.19847" lon="-1.37829">
        <ele>830.58</ele>
        <time>2026-09-02T09:53:06Z</time>
      </trkpt>
      <trkpt lat="43.19849" lon="-1.37831">
        <ele>830.56</ele>
        <time>2026-09-02T09:53:40Z</time>
      </trkpt>
      <trkpt lat="43.19848" lon="-1.37833">
        <ele>830.95</ele>
        <time>2026-09-02T09:54:14Z</time>
      </trkpt>
      <trkpt lat="43.1985" lon="-1.37831">
        <ele>830.68</ele>
        <time>2026-09-02T09:54:38Z</time>
      </trkpt>
      <trkpt lat="43.19848" lon="-1.37832">
        <ele>830.76</ele>
        <time>2026-09-02T09:55:11Z</time>
      </trkpt>
      <trkpt lat="43.19851" lon="-1.37836">
        <ele>831.42</ele>
        <time>2026-09-02T09:55:46Z</time>
      </trkpt>
      <trkpt lat="43.19849" lon="-1.37833">
        <ele>831.62</ele>
        <time>2026-09-02T09:56:18Z</time>
      </trkpt>
      <trkpt lat="43.19848" lon="-1.37832">
        <ele>832.3</ele>
        <time>2026-09-02T09:56:36Z</time>
      </trkpt>
      <trkpt lat="43.19847" lon="-1.37832">
        <ele>831.75</ele>
        <time>2026-09-02T09:56:53Z</time>
      </trkpt>
      <trkpt lat="43.19847" lon="-1.37832">
        <ele>831.65</ele>
        <time>2026-09-02T09:57:25Z</time>
      </trkpt>
      <trkpt lat="43.19847" lon="-1.37832">
        <ele>831.79</ele>
        <time>2026-09-02T09:57:55Z</time>
      </trkpt>
      <trkpt lat="43.19846" lon="-1.37832">
        <ele>832.05</ele>
        <time>2026-09-02T09:58:25Z</time>
      </trkpt>
      <trkpt lat="43.19846" lon="-1.37832">
        <ele>832.06</ele>
        <time>2026-09-02T09:58:55Z</time>
      </trkpt>
      <trkpt lat="43.19846" lon="-1.3783">
        <ele>832.71</ele>
        <time>2026-09-02T09:59:25Z</time>
      </trkpt>
      <trkpt lat="43.19846" lon="-1.3783">
        <ele>833.06</ele>
        <time>2026-09-02T09:59:56Z</time>
      </trkpt>
      <trkpt lat="43.19847" lon="-1.3783">
        <ele>832.84</ele>
        <time>2026-09-02T10:00:40Z</time>
      </trkpt>
      <trkpt lat="43.19847" lon="-1.37829">
        <ele>833.17</ele>
        <time>2026-09-02T10:01:25Z</time>
      </trkpt>
      <trkpt lat="43.19848" lon="-1.37829">
        <ele>833.34</ele>
        <time>2026-09-02T10:01:57Z</time>
      </trkpt>
      <trkpt lat="43.19848" lon="-1.3783">
        <ele>833.24</ele>
        <time>2026-09-02T10:02:26Z</time>
      </trkpt>
      <trkpt lat="43.19847" lon="-1.37831">
        <ele>833.44</ele>
        <time>2026-09-02T10:03:00Z</time>
      </trkpt>
      <trkpt lat="43.19847" lon="-1.37831">
        <ele>833.78</ele>
        <time>2026-09-02T10:03:43Z</time>
      </trkpt>
      <trkpt lat="43.19847" lon="-1.37829">
        <ele>834.03</ele>
        <time>2026-09-02T10:04:16Z</time>
      </trkpt>
      <trkpt lat="43.19844" lon="-1.37837">
        <ele>835.43</ele>
        <time>2026-09-02T10:04:36Z</time>
      </trkpt>
      <trkpt lat="43.19844" lon="-1.37843">
        <ele>835.71</ele>
        <time>2026-09-02T10:04:58Z</time>
      </trkpt>
      <trkpt lat="43.19846" lon="-1.37848">
        <ele>835.88</ele>
        <time>2026-09-02T10:05:17Z</time>
      </trkpt>
      <trkpt lat="43.19847" lon="-1.37848">
        <ele>835.92</ele>
        <time>2026-09-02T10:05:47Z</time>
      </trkpt>
      <trkpt lat="43.19847" lon="-1.37848">
        <ele>835.9</ele>
        <time>2026-09-02T10:06:01Z</time>
      </trkpt>
      <trkpt lat="43.19845" lon="-1.37845">
        <ele>836.17</ele>
        <time>2026-09-02T10:06:21Z</time>
      </trkpt>
      <trkpt lat="43.19845" lon="-1.37844">
        <ele>836.31</ele>
        <time>2026-09-02T10:06:57Z</time>
      </trkpt>
      <trkpt lat="43.19846" lon="-1.37828">
        <ele>835.64</ele>
        <time>2026-09-02T10:07:13Z</time>
      </trkpt>
      <trkpt lat="43.1985" lon="-1.37814">
        <ele>833.96</ele>
        <time>2026-09-02T10:07:32Z</time>
      </trkpt>
      <trkpt lat="43.19852" lon="-1.378">
        <ele>832.23</ele>
        <time>2026-09-02T10:07:49Z</time>
      </trkpt>
      <trkpt lat="43.19856" lon="-1.37777">
        <ele>829.6</ele>
        <time>2026-09-02T10:08:13Z</time>
      </trkpt>
      <trkpt lat="43.19857" lon="-1.37763">
        <ele>827.51</ele>
        <time>2026-09-02T10:08:30Z</time>
      </trkpt>
      <trkpt lat="43.19856" lon="-1.37749">
        <ele>824.61</ele>
        <time>2026-09-02T10:08:47Z</time>
      </trkpt>
      <trkpt lat="43.19854" lon="-1.37731">
        <ele>821.79</ele>
        <time>2026-09-02T10:09:08Z</time>
      </trkpt>
      <trkpt lat="43.19851" lon="-1.37713">
        <ele>819.04</ele>
        <time>2026-09-02T10:09:27Z</time>
      </trkpt>
      <trkpt lat="43.19848" lon="-1.37697">
        <ele>816.01</ele>
        <time>2026-09-02T10:09:46Z</time>
      </trkpt>
      <trkpt lat="43.19844" lon="-1.37679">
        <ele>813.68</ele>
        <time>2026-09-02T10:10:05Z</time>
      </trkpt>
      <trkpt lat="43.1984" lon="-1.37663">
        <ele>811.03</ele>
        <time>2026-09-02T10:10:26Z</time>
      </trkpt>
      <trkpt lat="43.19837" lon="-1.3765">
        <ele>808.42</ele>
        <time>2026-09-02T10:10:44Z</time>
      </trkpt>
      <trkpt lat="43.19837" lon="-1.37631">
        <ele>805.01</ele>
        <time>2026-09-02T10:11:06Z</time>
      </trkpt>
      <trkpt lat="43.19839" lon="-1.37615">
        <ele>801.77</ele>
        <time>2026-09-02T10:11:25Z</time>
      </trkpt>
      <trkpt lat="43.19843" lon="-1.376">
        <ele>799.5</ele>
        <time>2026-09-02T10:11:44Z</time>
      </trkpt>
      <trkpt lat="43.19843" lon="-1.37587">
        <ele>797.12</ele>
        <time>2026-09-02T10:12:02Z</time>
      </trkpt>
      <trkpt lat="43.19846" lon="-1.37574">
        <ele>794.42</ele>
        <time>2026-09-02T10:12:18Z</time>
      </trkpt>
      <trkpt lat="43.19851" lon="-1.37561">
        <ele>791.66</ele>
        <time>2026-09-02T10:12:36Z</time>
      </trkpt>
      <trkpt lat="43.1985" lon="-1.37547">
        <ele>789.06</ele>
        <time>2026-09-02T10:12:54Z</time>
      </trkpt>
      <trkpt lat="43.19848" lon="-1.37533">
        <ele>786.36</ele>
        <time>2026-09-02T10:13:13Z</time>
      </trkpt>
      <trkpt lat="43.19851" lon="-1.37514">
        <ele>783.82</ele>
        <time>2026-09-02T10:13:35Z</time>
      </trkpt>
      <trkpt lat="43.19853" lon="-1.37503">
        <ele>781.77</ele>
        <time>2026-09-02T10:13:52Z</time>
      </trkpt>
      <trkpt lat="43.19855" lon="-1.37492">
        <ele>779.32</ele>
        <time>2026-09-02T10:14:09Z</time>
      </trkpt>
      <trkpt lat="43.19852" lon="-1.37473">
        <ele>777.22</ele>
        <time>2026-09-02T10:14:29Z</time>
      </trkpt>
      <trkpt lat="43.19853" lon="-1.37459">
        <ele>774.4</ele>
        <time>2026-09-02T10:14:49Z</time>
      </trkpt>
      <trkpt lat="43.19856" lon="-1.37447">
        <ele>771.33</ele>
        <time>2026-09-02T10:15:07Z</time>
      </trkpt>
      <trkpt lat="43.19858" lon="-1.37435">
        <ele>768.95</ele>
        <time>2026-09-02T10:15:25Z</time>
      </trkpt>
      <trkpt lat="43.19862" lon="-1.37416">
        <ele>765.97</ele>
        <time>2026-09-02T10:15:50Z</time>
      </trkpt>
      <trkpt lat="43.19865" lon="-1.37407">
        <ele>764.59</ele>
        <time>2026-09-02T10:16:10Z</time>
      </trkpt>
      <trkpt lat="43.19868" lon="-1.37388">
        <ele>762.45</ele>
        <time>2026-09-02T10:16:29Z</time>
      </trkpt>
      <trkpt lat="43.19869" lon="-1.37382">
        <ele>761.67</ele>
        <time>2026-09-02T10:16:34Z</time>
      </trkpt>
      <trkpt lat="43.19878" lon="-1.37354">
        <ele>760.33</ele>
        <time>2026-09-02T10:16:58Z</time>
      </trkpt>
      <trkpt lat="43.19891" lon="-1.37334">
        <ele>757.06</ele>
        <time>2026-09-02T10:17:23Z</time>
      </trkpt>
      <trkpt lat="43.19899" lon="-1.37319">
        <ele>755.23</ele>
        <time>2026-09-02T10:17:42Z</time>
      </trkpt>
      <trkpt lat="43.19909" lon="-1.37296">
        <ele>752.33</ele>
        <time>2026-09-02T10:18:06Z</time>
      </trkpt>
      <trkpt lat="43.19915" lon="-1.37275">
        <ele>750.18</ele>
        <time>2026-09-02T10:18:27Z</time>
      </trkpt>
      <trkpt lat="43.19917" lon="-1.37262">
        <ele>747.5</ele>
        <time>2026-09-02T10:18:47Z</time>
      </trkpt>
      <trkpt lat="43.19917" lon="-1.37251">
        <ele>745.14</ele>
        <time>2026-09-02T10:19:06Z</time>
      </trkpt>
      <trkpt lat="43.19919" lon="-1.37245">
        <ele>744.29</ele>
        <time>2026-09-02T10:19:13Z</time>
      </trkpt>
      <trkpt lat="43.19922" lon="-1.37228">
        <ele>742.73</ele>
        <time>2026-09-02T10:19:30Z</time>
      </trkpt>
      <trkpt lat="43.19921" lon="-1.37215">
        <ele>740.78</ele>
        <time>2026-09-02T10:19:47Z</time>
      </trkpt>
      <trkpt lat="43.19922" lon="-1.37202">
        <ele>738.89</ele>
        <time>2026-09-02T10:20:05Z</time>
      </trkpt>
      <trkpt lat="43.19924" lon="-1.37189">
        <ele>735.53</ele>
        <time>2026-09-02T10:20:25Z</time>
      </trkpt>
      <trkpt lat="43.19927" lon="-1.37176">
        <ele>732.5</ele>
        <time>2026-09-02T10:20:49Z</time>
      </trkpt>
      <trkpt lat="43.1993" lon="-1.37164">
        <ele>729.32</ele>
        <time>2026-09-02T10:21:11Z</time>
      </trkpt>
      <trkpt lat="43.19933" lon="-1.37151">
        <ele>726.72</ele>
        <time>2026-09-02T10:21:31Z</time>
      </trkpt>
      <trkpt lat="43.1994" lon="-1.37139">
        <ele>723.54</ele>
        <time>2026-09-02T10:21:53Z</time>
      </trkpt>
      <trkpt lat="43.19938" lon="-1.3713">
        <ele>720.48</ele>
        <time>2026-09-02T10:22:09Z</time>
      </trkpt>
      <trkpt lat="43.19941" lon="-1.37118">
        <ele>717.67</ele>
        <time>2026-09-02T10:22:30Z</time>
      </trkpt>
      <trkpt lat="43.19934" lon="-1.37109">
        <ele>715.36</ele>
        <time>2026-09-02T10:22:45Z</time>
      </trkpt>
      <trkpt lat="43.19931" lon="-1.37089">
        <ele>712.57</ele>
        <time>2026-09-02T10:23:04Z</time>
      </trkpt>
      <trkpt lat="43.19922" lon="-1.37071">
        <ele>710.68</ele>
        <time>2026-09-02T10:23:25Z</time>
      </trkpt>
      <trkpt lat="43.19917" lon="-1.37061">
        <ele>708.69</ele>
        <time>2026-09-02T10:23:42Z</time>
      </trkpt>
      <trkpt lat="43.19911" lon="-1.37062">
        <ele>707</ele>
        <time>2026-09-02T10:23:57Z</time>
      </trkpt>
      <trkpt lat="43.1991" lon="-1.3708">
        <ele>703.98</ele>
        <time>2026-09-02T10:24:18Z</time>
      </trkpt>
      <trkpt lat="43.19904" lon="-1.37095">
        <ele>700.91</ele>
        <time>2026-09-02T10:24:39Z</time>
      </trkpt>
      <trkpt lat="43.19897" lon="-1.37109">
        <ele>698.72</ele>
        <time>2026-09-02T10:24:58Z</time>
      </trkpt>
      <trkpt lat="43.19888" lon="-1.37122">
        <ele>696.04</ele>
        <time>2026-09-02T10:25:19Z</time>
      </trkpt>
      <trkpt lat="43.19878" lon="-1.37133">
        <ele>692.99</ele>
        <time>2026-09-02T10:25:41Z</time>
      </trkpt>
      <trkpt lat="43.19873" lon="-1.37144">
        <ele>689.97</ele>
        <time>2026-09-02T10:25:58Z</time>
      </trkpt>
      <trkpt lat="43.19863" lon="-1.37154">
        <ele>687.28</ele>
        <time>2026-09-02T10:26:18Z</time>
      </trkpt>
      <trkpt lat="43.19855" lon="-1.37164">
        <ele>684.61</ele>
        <time>2026-09-02T10:26:38Z</time>
      </trkpt>
      <trkpt lat="43.19849" lon="-1.37175">
        <ele>681.46</ele>
        <time>2026-09-02T10:26:57Z</time>
      </trkpt>
      <trkpt lat="43.1984" lon="-1.37182">
        <ele>678.76</ele>
        <time>2026-09-02T10:27:16Z</time>
      </trkpt>
      <trkpt lat="43.19831" lon="-1.37195">
        <ele>675.5</ele>
        <time>2026-09-02T10:27:40Z</time>
      </trkpt>
      <trkpt lat="43.19825" lon="-1.37206">
        <ele>674.05</ele>
        <time>2026-09-02T10:27:58Z</time>
      </trkpt>
      <trkpt lat="43.19816" lon="-1.37219">
        <ele>670.85</ele>
        <time>2026-09-02T10:28:17Z</time>
      </trkpt>
      <trkpt lat="43.19808" lon="-1.37233">
        <ele>667.97</ele>
        <time>2026-09-02T10:28:36Z</time>
      </trkpt>
      <trkpt lat="43.19803" lon="-1.37239">
        <ele>667.12</ele>
        <time>2026-09-02T10:28:44Z</time>
      </trkpt>
      <trkpt lat="43.19791" lon="-1.37257">
        <ele>665.18</ele>
        <time>2026-09-02T10:29:05Z</time>
      </trkpt>
      <trkpt lat="43.19781" lon="-1.37261">
        <ele>663.97</ele>
        <time>2026-09-02T10:29:18Z</time>
      </trkpt>
      <trkpt lat="43.19767" lon="-1.37267">
        <ele>661.46</ele>
        <time>2026-09-02T10:29:37Z</time>
      </trkpt>
      <trkpt lat="43.19755" lon="-1.37274">
        <ele>658.35</ele>
        <time>2026-09-02T10:29:55Z</time>
      </trkpt>
      <trkpt lat="43.19748" lon="-1.37285">
        <ele>656.4</ele>
        <time>2026-09-02T10:30:12Z</time>
      </trkpt>
      <trkpt lat="43.19736" lon="-1.3729">
        <ele>655.05</ele>
        <time>2026-09-02T10:30:31Z</time>
      </trkpt>
      <trkpt lat="43.19735" lon="-1.37293">
        <ele>655.16</ele>
        <time>2026-09-02T10:30:49Z</time>
      </trkpt>
      <trkpt lat="43.19734" lon="-1.37294">
        <ele>655.52</ele>
        <time>2026-09-02T10:31:07Z</time>
      </trkpt>
      <trkpt lat="43.19734" lon="-1.37294">
        <ele>654.66</ele>
        <time>2026-09-02T10:31:19Z</time>
      </trkpt>
      <trkpt lat="43.19735" lon="-1.37292">
        <ele>654.38</ele>
        <time>2026-09-02T10:31:50Z</time>
      </trkpt>
      <trkpt lat="43.19737" lon="-1.37287">
        <ele>654.87</ele>
        <time>2026-09-02T10:32:10Z</time>
      </trkpt>
      <trkpt lat="43.19746" lon="-1.37268">
        <ele>653.35</ele>
        <time>2026-09-02T10:32:30Z</time>
      </trkpt>
      <trkpt lat="43.19756" lon="-1.37252">
        <ele>650.71</ele>
        <time>2026-09-02T10:32:52Z</time>
      </trkpt>
      <trkpt lat="43.19765" lon="-1.37238">
        <ele>647.69</ele>
        <time>2026-09-02T10:33:10Z</time>
      </trkpt>
      <trkpt lat="43.19771" lon="-1.37225">
        <ele>644.98</ele>
        <time>2026-09-02T10:33:30Z</time>
      </trkpt>
      <trkpt lat="43.19776" lon="-1.37208">
        <ele>643.07</ele>
        <time>2026-09-02T10:33:49Z</time>
      </trkpt>
      <trkpt lat="43.19778" lon="-1.37185">
        <ele>640.91</ele>
        <time>2026-09-02T10:34:12Z</time>
      </trkpt>
      <trkpt lat="43.19779" lon="-1.37173">
        <ele>638.23</ele>
        <time>2026-09-02T10:34:33Z</time>
      </trkpt>
      <trkpt lat="43.19783" lon="-1.37162">
        <ele>635.69</ele>
        <time>2026-09-02T10:34:52Z</time>
      </trkpt>
      <trkpt lat="43.19784" lon="-1.37148">
        <ele>633.08</ele>
        <time>2026-09-02T10:35:09Z</time>
      </trkpt>
      <trkpt lat="43.1979" lon="-1.3714">
        <ele>632.02</ele>
        <time>2026-09-02T10:35:18Z</time>
      </trkpt>
      <trkpt lat="43.19801" lon="-1.37124">
        <ele>632.14</ele>
        <time>2026-09-02T10:35:37Z</time>
      </trkpt>
      <trkpt lat="43.19809" lon="-1.37108">
        <ele>631.32</ele>
        <time>2026-09-02T10:35:54Z</time>
      </trkpt>
      <trkpt lat="43.19813" lon="-1.37096">
        <ele>629.38</ele>
        <time>2026-09-02T10:36:11Z</time>
      </trkpt>
      <trkpt lat="43.19803" lon="-1.37106">
        <ele>627.66</ele>
        <time>2026-09-02T10:36:28Z</time>
      </trkpt>
      <trkpt lat="43.19798" lon="-1.37113">
        <ele>627.67</ele>
        <time>2026-09-02T10:36:37Z</time>
      </trkpt>
      <trkpt lat="43.19785" lon="-1.37127">
        <ele>626.16</ele>
        <time>2026-09-02T10:36:58Z</time>
      </trkpt>
      <trkpt lat="43.19773" lon="-1.37141">
        <ele>623.54</ele>
        <time>2026-09-02T10:37:19Z</time>
      </trkpt>
      <trkpt lat="43.19764" lon="-1.37151">
        <ele>622.01</ele>
        <time>2026-09-02T10:37:37Z</time>
      </trkpt>
      <trkpt lat="43.19763" lon="-1.37155">
        <ele>621.19</ele>
        <time>2026-09-02T10:37:42Z</time>
      </trkpt>
      <trkpt lat="43.19752" lon="-1.3716">
        <ele>619.6</ele>
        <time>2026-09-02T10:38:00Z</time>
      </trkpt>
      <trkpt lat="43.19752" lon="-1.37144">
        <ele>617.92</ele>
        <time>2026-09-02T10:38:19Z</time>
      </trkpt>
      <trkpt lat="43.19752" lon="-1.37144">
        <ele>617.93</ele>
        <time>2026-09-02T10:38:41Z</time>
      </trkpt>
      <trkpt lat="43.19749" lon="-1.3714">
        <ele>616.24</ele>
        <time>2026-09-02T10:39:06Z</time>
      </trkpt>
      <trkpt lat="43.19747" lon="-1.37133">
        <ele>613.1</ele>
        <time>2026-09-02T10:39:30Z</time>
      </trkpt>
      <trkpt lat="43.1974" lon="-1.37129">
        <ele>609.99</ele>
        <time>2026-09-02T10:39:54Z</time>
      </trkpt>
      <trkpt lat="43.19736" lon="-1.37124">
        <ele>607.19</ele>
        <time>2026-09-02T10:40:16Z</time>
      </trkpt>
      <trkpt lat="43.1973" lon="-1.37119">
        <ele>603.95</ele>
        <time>2026-09-02T10:40:37Z</time>
      </trkpt>
      <trkpt lat="43.19727" lon="-1.37117">
        <ele>602.9</ele>
        <time>2026-09-02T10:41:04Z</time>
      </trkpt>
      <trkpt lat="43.19723" lon="-1.37111">
        <ele>600.87</ele>
        <time>2026-09-02T10:41:23Z</time>
      </trkpt>
      <trkpt lat="43.19718" lon="-1.37111">
        <ele>597.84</ele>
        <time>2026-09-02T10:41:44Z</time>
      </trkpt>
      <trkpt lat="43.19712" lon="-1.37103">
        <ele>594.86</ele>
        <time>2026-09-02T10:42:05Z</time>
      </trkpt>
      <trkpt lat="43.19705" lon="-1.37094">
        <ele>591.65</ele>
        <time>2026-09-02T10:42:26Z</time>
      </trkpt>
      <trkpt lat="43.197" lon="-1.3709">
        <ele>588.56</ele>
        <time>2026-09-02T10:42:45Z</time>
      </trkpt>
      <trkpt lat="43.19694" lon="-1.37083">
        <ele>585.4</ele>
        <time>2026-09-02T10:43:05Z</time>
      </trkpt>
      <trkpt lat="43.19687" lon="-1.3708">
        <ele>582.28</ele>
        <time>2026-09-02T10:43:24Z</time>
      </trkpt>
      <trkpt lat="43.19681" lon="-1.37078">
        <ele>579.22</ele>
        <time>2026-09-02T10:43:41Z</time>
      </trkpt>
      <trkpt lat="43.19675" lon="-1.37078">
        <ele>576.2</ele>
        <time>2026-09-02T10:43:59Z</time>
      </trkpt>
      <trkpt lat="43.19669" lon="-1.37078">
        <ele>573.15</ele>
        <time>2026-09-02T10:44:19Z</time>
      </trkpt>
      <trkpt lat="43.19667" lon="-1.37086">
        <ele>570.95</ele>
        <time>2026-09-02T10:44:43Z</time>
      </trkpt>
      <trkpt lat="43.19666" lon="-1.37088">
        <ele>569.35</ele>
        <time>2026-09-02T10:45:04Z</time>
      </trkpt>
      <trkpt lat="43.19663" lon="-1.37084">
        <ele>567.17</ele>
        <time>2026-09-02T10:45:23Z</time>
      </trkpt>
      <trkpt lat="43.19661" lon="-1.37083">
        <ele>565.41</ele>
        <time>2026-09-02T10:45:44Z</time>
      </trkpt>
      <trkpt lat="43.19658" lon="-1.37081">
        <ele>562.98</ele>
        <time>2026-09-02T10:46:06Z</time>
      </trkpt>
      <trkpt lat="43.19655" lon="-1.37078">
        <ele>561.06</ele>
        <time>2026-09-02T10:46:23Z</time>
      </trkpt>
      <trkpt lat="43.1965" lon="-1.37075">
        <ele>558.05</ele>
        <time>2026-09-02T10:46:40Z</time>
      </trkpt>
      <trkpt lat="43.19644" lon="-1.37072">
        <ele>555.05</ele>
        <time>2026-09-02T10:47:00Z</time>
      </trkpt>
      <trkpt lat="43.19639" lon="-1.37068">
        <ele>553.35</ele>
        <time>2026-09-02T10:47:17Z</time>
      </trkpt>
      <trkpt lat="43.19636" lon="-1.37068">
        <ele>550.99</ele>
        <time>2026-09-02T10:47:39Z</time>
      </trkpt>
      <trkpt lat="43.1963" lon="-1.37064">
        <ele>547.94</ele>
        <time>2026-09-02T10:47:59Z</time>
      </trkpt>
      <trkpt lat="43.19627" lon="-1.37072">
        <ele>545.25</ele>
        <time>2026-09-02T10:48:26Z</time>
      </trkpt>
      <trkpt lat="43.19628" lon="-1.37087">
        <ele>542.67</ele>
        <time>2026-09-02T10:48:46Z</time>
      </trkpt>
      <trkpt lat="43.19628" lon="-1.37103">
        <ele>539.54</ele>
        <time>2026-09-02T10:49:06Z</time>
      </trkpt>
      <trkpt lat="43.19626" lon="-1.37115">
        <ele>537.15</ele>
        <time>2026-09-02T10:49:23Z</time>
      </trkpt>
      <trkpt lat="43.1962" lon="-1.37119">
        <ele>533.96</ele>
        <time>2026-09-02T10:49:45Z</time>
      </trkpt>
      <trkpt lat="43.19615" lon="-1.37113">
        <ele>530.85</ele>
        <time>2026-09-02T10:50:04Z</time>
      </trkpt>
      <trkpt lat="43.1961" lon="-1.37111">
        <ele>527.85</ele>
        <time>2026-09-02T10:50:27Z</time>
      </trkpt>
      <trkpt lat="43.19604" lon="-1.37107">
        <ele>524.78</ele>
        <time>2026-09-02T10:50:48Z</time>
      </trkpt>
      <trkpt lat="43.19597" lon="-1.37096">
        <ele>521.51</ele>
        <time>2026-09-02T10:51:09Z</time>
      </trkpt>
      <trkpt lat="43.1959" lon="-1.37089">
        <ele>518.67</ele>
        <time>2026-09-02T10:51:27Z</time>
      </trkpt>
      <trkpt lat="43.19583" lon="-1.37089">
        <ele>515.84</ele>
        <time>2026-09-02T10:51:48Z</time>
      </trkpt>
      <trkpt lat="43.19579" lon="-1.37099">
        <ele>512.69</ele>
        <time>2026-09-02T10:52:06Z</time>
      </trkpt>
      <trkpt lat="43.19572" lon="-1.371">
        <ele>509.65</ele>
        <time>2026-09-02T10:52:23Z</time>
      </trkpt>
      <trkpt lat="43.19561" lon="-1.37096">
        <ele>506.59</ele>
        <time>2026-09-02T10:52:45Z</time>
      </trkpt>
      <trkpt lat="43.19553" lon="-1.37096">
        <ele>503.56</ele>
        <time>2026-09-02T10:53:04Z</time>
      </trkpt>
      <trkpt lat="43.19547" lon="-1.37093">
        <ele>500.54</ele>
        <time>2026-09-02T10:53:25Z</time>
      </trkpt>
      <trkpt lat="43.19542" lon="-1.37089">
        <ele>497.43</ele>
        <time>2026-09-02T10:53:49Z</time>
      </trkpt>
      <trkpt lat="43.19538" lon="-1.37085">
        <ele>494.62</ele>
        <time>2026-09-02T10:54:13Z</time>
      </trkpt>
      <trkpt lat="43.19535" lon="-1.37078">
        <ele>491.88</ele>
        <time>2026-09-02T10:54:37Z</time>
      </trkpt>
      <trkpt lat="43.1953" lon="-1.37068">
        <ele>488.74</ele>
        <time>2026-09-02T10:54:55Z</time>
      </trkpt>
      <trkpt lat="43.19523" lon="-1.37052">
        <ele>486.02</ele>
        <time>2026-09-02T10:55:16Z</time>
      </trkpt>
      <trkpt lat="43.19515" lon="-1.37042">
        <ele>483.06</ele>
        <time>2026-09-02T10:55:36Z</time>
      </trkpt>
      <trkpt lat="43.19511" lon="-1.37036">
        <ele>481.46</ele>
        <time>2026-09-02T10:55:57Z</time>
      </trkpt>
      <trkpt lat="43.19508" lon="-1.37033">
        <ele>480.72</ele>
        <time>2026-09-02T10:56:15Z</time>
      </trkpt>
      <trkpt lat="43.19503" lon="-1.37042">
        <ele>478.61</ele>
        <time>2026-09-02T10:56:34Z</time>
      </trkpt>
      <trkpt lat="43.19499" lon="-1.37057">
        <ele>475.66</ele>
        <time>2026-09-02T10:56:53Z</time>
      </trkpt>
      <trkpt lat="43.19495" lon="-1.37069">
        <ele>472.44</ele>
        <time>2026-09-02T10:57:15Z</time>
      </trkpt>
      <trkpt lat="43.1949" lon="-1.37084">
        <ele>469.2</ele>
        <time>2026-09-02T10:57:36Z</time>
      </trkpt>
      <trkpt lat="43.19486" lon="-1.37097">
        <ele>466.78</ele>
        <time>2026-09-02T10:57:54Z</time>
      </trkpt>
      <trkpt lat="43.19484" lon="-1.37102">
        <ele>465.52</ele>
        <time>2026-09-02T10:58:17Z</time>
      </trkpt>
      <trkpt lat="43.19482" lon="-1.37112">
        <ele>463.64</ele>
        <time>2026-09-02T10:58:39Z</time>
      </trkpt>
      <trkpt lat="43.19485" lon="-1.37113">
        <ele>462.77</ele>
        <time>2026-09-02T10:59:01Z</time>
      </trkpt>
      <trkpt lat="43.19485" lon="-1.37112">
        <ele>462.75</ele>
        <time>2026-09-02T10:59:34Z</time>
      </trkpt>
      <trkpt lat="43.19484" lon="-1.37113">
        <ele>462.59</ele>
        <time>2026-09-02T11:00:08Z</time>
      </trkpt>
      <trkpt lat="43.19485" lon="-1.37113">
        <ele>462.3</ele>
        <time>2026-09-02T11:00:41Z</time>
      </trkpt>
      <trkpt lat="43.19483" lon="-1.37113">
        <ele>462.55</ele>
        <time>2026-09-02T11:01:11Z</time>
      </trkpt>
      <trkpt lat="43.19484" lon="-1.37112">
        <ele>462.36</ele>
        <time>2026-09-02T11:01:42Z</time>
      </trkpt>
      <trkpt lat="43.19485" lon="-1.3711">
        <ele>462.31</ele>
        <time>2026-09-02T11:02:15Z</time>
      </trkpt>
      <trkpt lat="43.19484" lon="-1.37108">
        <ele>462.16</ele>
        <time>2026-09-02T11:02:45Z</time>
      </trkpt>
      <trkpt lat="43.19483" lon="-1.37108">
        <ele>461.81</ele>
        <time>2026-09-02T11:03:15Z</time>
      </trkpt>
      <trkpt lat="43.19484" lon="-1.37113">
        <ele>461.85</ele>
        <time>2026-09-02T11:03:44Z</time>
      </trkpt>
      <trkpt lat="43.19484" lon="-1.37111">
        <ele>458.13</ele>
        <time>2026-09-02T11:03:54Z</time>
      </trkpt>
      <trkpt lat="43.19484" lon="-1.37111">
        <ele>462.99</ele>
        <time>2026-09-02T11:03:55Z</time>
      </trkpt>
      <trkpt lat="43.19484" lon="-1.37111">
        <ele>462.06</ele>
        <time>2026-09-02T11:03:56Z</time>
      </trkpt>
      <trkpt lat="43.19485" lon="-1.37112">
        <ele>460.61</ele>
        <time>2026-09-02T11:04:20Z</time>
      </trkpt>
      <trkpt lat="43.19485" lon="-1.37113">
        <ele>463.7</ele>
        <time>2026-09-02T11:04:25Z</time>
      </trkpt>
      <trkpt lat="43.19487" lon="-1.37117">
        <ele>461.92</ele>
        <time>2026-09-02T11:04:44Z</time>
      </trkpt>
      <trkpt lat="43.19486" lon="-1.37116">
        <ele>461.78</ele>
        <time>2026-09-02T11:05:04Z</time>
      </trkpt>
      <trkpt lat="43.19486" lon="-1.37117">
        <ele>461.77</ele>
        <time>2026-09-02T11:05:36Z</time>
      </trkpt>
      <trkpt lat="43.19486" lon="-1.37116">
        <ele>461.64</ele>
        <time>2026-09-02T11:05:47Z</time>
      </trkpt>
      <trkpt lat="43.19482" lon="-1.3711">
        <ele>461.68</ele>
        <time>2026-09-02T11:06:18Z</time>
      </trkpt>
      <trkpt lat="43.19485" lon="-1.37106">
        <ele>462.1</ele>
        <time>2026-09-02T11:06:47Z</time>
      </trkpt>
      <trkpt lat="43.19484" lon="-1.37107">
        <ele>461.94</ele>
        <time>2026-09-02T11:07:17Z</time>
      </trkpt>
      <trkpt lat="43.19486" lon="-1.37107">
        <ele>461.97</ele>
        <time>2026-09-02T11:07:50Z</time>
      </trkpt>
      <trkpt lat="43.19486" lon="-1.37115">
        <ele>461.84</ele>
        <time>2026-09-02T11:08:24Z</time>
      </trkpt>
      <trkpt lat="43.19487" lon="-1.37112">
        <ele>462.21</ele>
        <time>2026-09-02T11:08:54Z</time>
      </trkpt>
      <trkpt lat="43.19484" lon="-1.37112">
        <ele>462.22</ele>
        <time>2026-09-02T11:09:23Z</time>
      </trkpt>
      <trkpt lat="43.19485" lon="-1.37113">
        <ele>461.87</ele>
        <time>2026-09-02T11:09:53Z</time>
      </trkpt>
      <trkpt lat="43.19486" lon="-1.37115">
        <ele>461.86</ele>
        <time>2026-09-02T11:10:25Z</time>
      </trkpt>
      <trkpt lat="43.19484" lon="-1.37113">
        <ele>461.77</ele>
        <time>2026-09-02T11:10:59Z</time>
      </trkpt>
      <trkpt lat="43.19484" lon="-1.37114">
        <ele>461.87</ele>
        <time>2026-09-02T11:11:39Z</time>
      </trkpt>
      <trkpt lat="43.19485" lon="-1.37114">
        <ele>461.87</ele>
        <time>2026-09-02T11:12:09Z</time>
      </trkpt>
      <trkpt lat="43.19483" lon="-1.37115">
        <ele>461.85</ele>
        <time>2026-09-02T11:12:37Z</time>
      </trkpt>
      <trkpt lat="43.19483" lon="-1.37116">
        <ele>461.71</ele>
        <time>2026-09-02T11:13:02Z</time>
      </trkpt>
      <trkpt lat="43.19484" lon="-1.37114">
        <ele>461.8</ele>
        <time>2026-09-02T11:13:36Z</time>
      </trkpt>
      <trkpt lat="43.19484" lon="-1.37114">
        <ele>461.92</ele>
        <time>2026-09-02T11:14:07Z</time>
      </trkpt>
      <trkpt lat="43.19484" lon="-1.37113">
        <ele>461.86</ele>
        <time>2026-09-02T11:14:38Z</time>
      </trkpt>
      <trkpt lat="43.19484" lon="-1.37112">
        <ele>462.66</ele>
        <time>2026-09-02T11:14:52Z</time>
      </trkpt>
      <trkpt lat="43.19483" lon="-1.37116">
        <ele>462.14</ele>
        <time>2026-09-02T11:15:16Z</time>
      </trkpt>
      <trkpt lat="43.19478" lon="-1.37123">
        <ele>459.46</ele>
        <time>2026-09-02T11:15:41Z</time>
      </trkpt>
      <trkpt lat="43.19473" lon="-1.37135">
        <ele>456.44</ele>
        <time>2026-09-02T11:16:06Z</time>
      </trkpt>
      <trkpt lat="43.19463" lon="-1.3713">
        <ele>453.58</ele>
        <time>2026-09-02T11:16:31Z</time>
      </trkpt>
      <trkpt lat="43.19453" lon="-1.37114">
        <ele>450.54</ele>
        <time>2026-09-02T11:16:57Z</time>
      </trkpt>
      <trkpt lat="43.19448" lon="-1.37108">
        <ele>449.38</ele>
        <time>2026-09-02T11:17:14Z</time>
      </trkpt>
      <trkpt lat="43.19441" lon="-1.3709">
        <ele>446.38</ele>
        <time>2026-09-02T11:17:37Z</time>
      </trkpt>
      <trkpt lat="43.19437" lon="-1.37076">
        <ele>443.23</ele>
        <time>2026-09-02T11:18:00Z</time>
      </trkpt>
      <trkpt lat="43.19434" lon="-1.37063">
        <ele>440.22</ele>
        <time>2026-09-02T11:18:23Z</time>
      </trkpt>
      <trkpt lat="43.19431" lon="-1.37049">
        <ele>437.2</ele>
        <time>2026-09-02T11:18:43Z</time>
      </trkpt>
      <trkpt lat="43.19429" lon="-1.37034">
        <ele>434.09</ele>
        <time>2026-09-02T11:19:07Z</time>
      </trkpt>
      <trkpt lat="43.19428" lon="-1.37023">
        <ele>430.88</ele>
        <time>2026-09-02T11:19:23Z</time>
      </trkpt>
      <trkpt lat="43.1943" lon="-1.37005">
        <ele>427.55</ele>
        <time>2026-09-02T11:19:45Z</time>
      </trkpt>
      <trkpt lat="43.19434" lon="-1.36987">
        <ele>424.32</ele>
        <time>2026-09-02T11:20:09Z</time>
      </trkpt>
      <trkpt lat="43.19437" lon="-1.36974">
        <ele>421.23</ele>
        <time>2026-09-02T11:20:32Z</time>
      </trkpt>
      <trkpt lat="43.19441" lon="-1.36961">
        <ele>418.09</ele>
        <time>2026-09-02T11:20:54Z</time>
      </trkpt>
      <trkpt lat="43.19446" lon="-1.36948">
        <ele>415.55</ele>
        <time>2026-09-02T11:21:13Z</time>
      </trkpt>
      <trkpt lat="43.19451" lon="-1.36931">
        <ele>412.47</ele>
        <time>2026-09-02T11:21:39Z</time>
      </trkpt>
      <trkpt lat="43.19457" lon="-1.36918">
        <ele>409.33</ele>
        <time>2026-09-02T11:22:02Z</time>
      </trkpt>
      <trkpt lat="43.19461" lon="-1.36906">
        <ele>406.26</ele>
        <time>2026-09-02T11:22:19Z</time>
      </trkpt>
      <trkpt lat="43.19465" lon="-1.36899">
        <ele>404.72</ele>
        <time>2026-09-02T11:22:35Z</time>
      </trkpt>
      <trkpt lat="43.1947" lon="-1.3688">
        <ele>402.25</ele>
        <time>2026-09-02T11:22:56Z</time>
      </trkpt>
      <trkpt lat="43.19475" lon="-1.36868">
        <ele>399.06</ele>
        <time>2026-09-02T11:23:17Z</time>
      </trkpt>
      <trkpt lat="43.19478" lon="-1.36854">
        <ele>395.99</ele>
        <time>2026-09-02T11:23:38Z</time>
      </trkpt>
      <trkpt lat="43.1948" lon="-1.36843">
        <ele>393.26</ele>
        <time>2026-09-02T11:23:57Z</time>
      </trkpt>
      <trkpt lat="43.19483" lon="-1.36833">
        <ele>392.18</ele>
        <time>2026-09-02T11:24:08Z</time>
      </trkpt>
      <trkpt lat="43.19486" lon="-1.36818">
        <ele>389.52</ele>
        <time>2026-09-02T11:24:25Z</time>
      </trkpt>
      <trkpt lat="43.19491" lon="-1.36801">
        <ele>386.24</ele>
        <time>2026-09-02T11:24:51Z</time>
      </trkpt>
      <trkpt lat="43.19496" lon="-1.36783">
        <ele>383.2</ele>
        <time>2026-09-02T11:25:15Z</time>
      </trkpt>
      <trkpt lat="43.19499" lon="-1.36766">
        <ele>380.16</ele>
        <time>2026-09-02T11:25:35Z</time>
      </trkpt>
      <trkpt lat="43.19498" lon="-1.36751">
        <ele>377.17</ele>
        <time>2026-09-02T11:25:59Z</time>
      </trkpt>
      <trkpt lat="43.19494" lon="-1.36738">
        <ele>374.49</ele>
        <time>2026-09-02T11:26:21Z</time>
      </trkpt>
      <trkpt lat="43.19493" lon="-1.3673">
        <ele>371.46</ele>
        <time>2026-09-02T11:26:38Z</time>
      </trkpt>
      <trkpt lat="43.19495" lon="-1.36718">
        <ele>369.23</ele>
        <time>2026-09-02T11:27:00Z</time>
      </trkpt>
      <trkpt lat="43.19494" lon="-1.36699">
        <ele>367.6</ele>
        <time>2026-09-02T11:27:23Z</time>
      </trkpt>
      <trkpt lat="43.19498" lon="-1.3667">
        <ele>365.77</ele>
        <time>2026-09-02T11:27:47Z</time>
      </trkpt>
      <trkpt lat="43.195" lon="-1.36644">
        <ele>362.92</ele>
        <time>2026-09-02T11:28:10Z</time>
      </trkpt>
      <trkpt lat="43.19507" lon="-1.36623">
        <ele>359.83</ele>
        <time>2026-09-02T11:28:37Z</time>
      </trkpt>
      <trkpt lat="43.19516" lon="-1.36608">
        <ele>356.94</ele>
        <time>2026-09-02T11:29:03Z</time>
      </trkpt>
      <trkpt lat="43.19524" lon="-1.36598">
        <ele>356.4</ele>
        <time>2026-09-02T11:29:29Z</time>
      </trkpt>
      <trkpt lat="43.19528" lon="-1.36595">
        <ele>356.03</ele>
        <time>2026-09-02T11:29:43Z</time>
      </trkpt>
      <trkpt lat="43.1953" lon="-1.36582">
        <ele>355.31</ele>
        <time>2026-09-02T11:30:04Z</time>
      </trkpt>
      <trkpt lat="43.19535" lon="-1.36575">
        <ele>353.6</ele>
        <time>2026-09-02T11:30:28Z</time>
      </trkpt>
      <trkpt lat="43.19538" lon="-1.36567">
        <ele>354.69</ele>
        <time>2026-09-02T11:30:51Z</time>
      </trkpt>
      <trkpt lat="43.19541" lon="-1.36561">
        <ele>353.51</ele>
        <time>2026-09-02T11:31:16Z</time>
      </trkpt>
      <trkpt lat="43.19541" lon="-1.36546">
        <ele>352.95</ele>
        <time>2026-09-02T11:31:38Z</time>
      </trkpt>
      <trkpt lat="43.19542" lon="-1.36535">
        <ele>351.07</ele>
        <time>2026-09-02T11:32:02Z</time>
      </trkpt>
      <trkpt lat="43.19539" lon="-1.36518">
        <ele>349.37</ele>
        <time>2026-09-02T11:32:24Z</time>
      </trkpt>
      <trkpt lat="43.19541" lon="-1.36498">
        <ele>347.06</ele>
        <time>2026-09-02T11:32:48Z</time>
      </trkpt>
      <trkpt lat="43.19534" lon="-1.36481">
        <ele>344.66</ele>
        <time>2026-09-02T11:33:11Z</time>
      </trkpt>
      <trkpt lat="43.19531" lon="-1.36456">
        <ele>342.41</ele>
        <time>2026-09-02T11:33:38Z</time>
      </trkpt>
      <trkpt lat="43.1953" lon="-1.36441">
        <ele>340.31</ele>
        <time>2026-09-02T11:34:00Z</time>
      </trkpt>
      <trkpt lat="43.19522" lon="-1.36423">
        <ele>337.54</ele>
        <time>2026-09-02T11:34:23Z</time>
      </trkpt>
      <trkpt lat="43.19522" lon="-1.36395">
        <ele>337.18</ele>
        <time>2026-09-02T11:34:47Z</time>
      </trkpt>
      <trkpt lat="43.19522" lon="-1.36363">
        <ele>338.62</ele>
        <time>2026-09-02T11:35:12Z</time>
      </trkpt>
      <trkpt lat="43.19519" lon="-1.36337">
        <ele>337.38</ele>
        <time>2026-09-02T11:35:37Z</time>
      </trkpt>
      <trkpt lat="43.19514" lon="-1.3632">
        <ele>335.69</ele>
        <time>2026-09-02T11:36:01Z</time>
      </trkpt>
      <trkpt lat="43.1951" lon="-1.36307">
        <ele>334.2</ele>
        <time>2026-09-02T11:36:24Z</time>
      </trkpt>
      <trkpt lat="43.19501" lon="-1.3629">
        <ele>332.14</ele>
        <time>2026-09-02T11:36:48Z</time>
      </trkpt>
      <trkpt lat="43.19488" lon="-1.36279">
        <ele>330.63</ele>
        <time>2026-09-02T11:37:08Z</time>
      </trkpt>
      <trkpt lat="43.19482" lon="-1.36269">
        <ele>327.61</ele>
        <time>2026-09-02T11:37:26Z</time>
      </trkpt>
      <trkpt lat="43.19475" lon="-1.3626">
        <ele>325.79</ele>
        <time>2026-09-02T11:37:44Z</time>
      </trkpt>
      <trkpt lat="43.19469" lon="-1.36241">
        <ele>322.45</ele>
        <time>2026-09-02T11:38:08Z</time>
      </trkpt>
      <trkpt lat="43.19463" lon="-1.36227">
        <ele>320.1</ele>
        <time>2026-09-02T11:38:29Z</time>
      </trkpt>
      <trkpt lat="43.19454" lon="-1.36206">
        <ele>318.18</ele>
        <time>2026-09-02T11:38:53Z</time>
      </trkpt>
      <trkpt lat="43.19444" lon="-1.36179">
        <ele>317.48</ele>
        <time>2026-09-02T11:39:16Z</time>
      </trkpt>
      <trkpt lat="43.19444" lon="-1.36151">
        <ele>317.86</ele>
        <time>2026-09-02T11:39:38Z</time>
      </trkpt>
      <trkpt lat="43.1944" lon="-1.3612">
        <ele>317.61</ele>
        <time>2026-09-02T11:40:04Z</time>
      </trkpt>
      <trkpt lat="43.1944" lon="-1.36107">
        <ele>317.85</ele>
        <time>2026-09-02T11:40:29Z</time>
      </trkpt>
      <trkpt lat="43.19439" lon="-1.36075">
        <ele>318.23</ele>
        <time>2026-09-02T11:40:54Z</time>
      </trkpt>
      <trkpt lat="43.19437" lon="-1.36039">
        <ele>319.22</ele>
        <time>2026-09-02T11:41:21Z</time>
      </trkpt>
      <trkpt lat="43.19434" lon="-1.36008">
        <ele>320.49</ele>
        <time>2026-09-02T11:41:47Z</time>
      </trkpt>
      <trkpt lat="43.19431" lon="-1.35982">
        <ele>318.87</ele>
        <time>2026-09-02T11:42:13Z</time>
      </trkpt>
      <trkpt lat="43.19427" lon="-1.35958">
        <ele>316.46</ele>
        <time>2026-09-02T11:42:37Z</time>
      </trkpt>
      <trkpt lat="43.19425" lon="-1.35933">
        <ele>314.42</ele>
        <time>2026-09-02T11:43:00Z</time>
      </trkpt>
      <trkpt lat="43.19423" lon="-1.35907">
        <ele>311.78</ele>
        <time>2026-09-02T11:43:24Z</time>
      </trkpt>
      <trkpt lat="43.19421" lon="-1.35892">
        <ele>311.08</ele>
        <time>2026-09-02T11:43:35Z</time>
      </trkpt>
      <trkpt lat="43.19416" lon="-1.35858">
        <ele>310.68</ele>
        <time>2026-09-02T11:44:02Z</time>
      </trkpt>
      <trkpt lat="43.19411" lon="-1.35833">
        <ele>310.53</ele>
        <time>2026-09-02T11:44:27Z</time>
      </trkpt>
      <trkpt lat="43.19404" lon="-1.35808">
        <ele>311.95</ele>
        <time>2026-09-02T11:44:49Z</time>
      </trkpt>
      <trkpt lat="43.19402" lon="-1.3578">
        <ele>314</ele>
        <time>2026-09-02T11:45:13Z</time>
      </trkpt>
      <trkpt lat="43.19412" lon="-1.3575">
        <ele>314.59</ele>
        <time>2026-09-02T11:45:41Z</time>
      </trkpt>
      <trkpt lat="43.19414" lon="-1.35722">
        <ele>313.84</ele>
        <time>2026-09-02T11:46:07Z</time>
      </trkpt>
      <trkpt lat="43.19416" lon="-1.35694">
        <ele>314.6</ele>
        <time>2026-09-02T11:46:29Z</time>
      </trkpt>
      <trkpt lat="43.1942" lon="-1.35661">
        <ele>314.02</ele>
        <time>2026-09-02T11:46:55Z</time>
      </trkpt>
      <trkpt lat="43.19428" lon="-1.35639">
        <ele>312.49</ele>
        <time>2026-09-02T11:47:16Z</time>
      </trkpt>
      <trkpt lat="43.19432" lon="-1.35611">
        <ele>312.08</ele>
        <time>2026-09-02T11:47:39Z</time>
      </trkpt>
      <trkpt lat="43.19434" lon="-1.35577">
        <ele>311.43</ele>
        <time>2026-09-02T11:48:05Z</time>
      </trkpt>
      <trkpt lat="43.19434" lon="-1.3555">
        <ele>312.27</ele>
        <time>2026-09-02T11:48:28Z</time>
      </trkpt>
      <trkpt lat="43.19431" lon="-1.35518">
        <ele>312.8</ele>
        <time>2026-09-02T11:48:52Z</time>
      </trkpt>
      <trkpt lat="43.19426" lon="-1.35492">
        <ele>312.7</ele>
        <time>2026-09-02T11:49:12Z</time>
      </trkpt>
      <trkpt lat="43.19422" lon="-1.35473">
        <ele>312.44</ele>
        <time>2026-09-02T11:49:30Z</time>
      </trkpt>
      <trkpt lat="43.19408" lon="-1.35447">
        <ele>312.19</ele>
        <time>2026-09-02T11:49:56Z</time>
      </trkpt>
      <trkpt lat="43.19396" lon="-1.35424">
        <ele>313.08</ele>
        <time>2026-09-02T11:50:19Z</time>
      </trkpt>
      <trkpt lat="43.19382" lon="-1.35409">
        <ele>312.35</ele>
        <time>2026-09-02T11:50:38Z</time>
      </trkpt>
      <trkpt lat="43.19369" lon="-1.35386">
        <ele>311.53</ele>
        <time>2026-09-02T11:51:03Z</time>
      </trkpt>
      <trkpt lat="43.19355" lon="-1.35368">
        <ele>309.05</ele>
        <time>2026-09-02T11:51:27Z</time>
      </trkpt>
      <trkpt lat="43.19341" lon="-1.35347">
        <ele>307.98</ele>
        <time>2026-09-02T11:51:49Z</time>
      </trkpt>
      <trkpt lat="43.19324" lon="-1.35329">
        <ele>305.11</ele>
        <time>2026-09-02T11:52:15Z</time>
      </trkpt>
      <trkpt lat="43.19319" lon="-1.35321">
        <ele>304.39</ele>
        <time>2026-09-02T11:52:26Z</time>
      </trkpt>
      <trkpt lat="43.19317" lon="-1.35317">
        <ele>303.97</ele>
        <time>2026-09-02T11:52:30Z</time>
      </trkpt>
      <trkpt lat="43.19315" lon="-1.35295">
        <ele>303.3</ele>
        <time>2026-09-02T11:52:54Z</time>
      </trkpt>
      <trkpt lat="43.19315" lon="-1.35294">
        <ele>303.28</ele>
        <time>2026-09-02T11:52:55Z</time>
      </trkpt>
      <trkpt lat="43.19313" lon="-1.35266">
        <ele>300.72</ele>
        <time>2026-09-02T11:53:22Z</time>
      </trkpt>
      <trkpt lat="43.19311" lon="-1.35259">
        <ele>299.91</ele>
        <time>2026-09-02T11:53:32Z</time>
      </trkpt>
      <trkpt lat="43.193" lon="-1.35233">
        <ele>297.11</ele>
        <time>2026-09-02T11:53:57Z</time>
      </trkpt>
      <trkpt lat="43.19295" lon="-1.35202">
        <ele>294.66</ele>
        <time>2026-09-02T11:54:23Z</time>
      </trkpt>
      <trkpt lat="43.19291" lon="-1.35181">
        <ele>293.3</ele>
        <time>2026-09-02T11:54:41Z</time>
      </trkpt>
      <trkpt lat="43.19289" lon="-1.35155">
        <ele>291.03</ele>
        <time>2026-09-02T11:55:04Z</time>
      </trkpt>
      <trkpt lat="43.19285" lon="-1.35121">
        <ele>288.36</ele>
        <time>2026-09-02T11:55:33Z</time>
      </trkpt>
      <trkpt lat="43.19287" lon="-1.35092">
        <ele>285.28</ele>
        <time>2026-09-02T11:55:59Z</time>
      </trkpt>
      <trkpt lat="43.19298" lon="-1.35077">
        <ele>282.16</ele>
        <time>2026-09-02T11:56:20Z</time>
      </trkpt>
      <trkpt lat="43.19306" lon="-1.3506">
        <ele>279.15</ele>
        <time>2026-09-02T11:56:41Z</time>
      </trkpt>
      <trkpt lat="43.19319" lon="-1.3504">
        <ele>276.9</ele>
        <time>2026-09-02T11:57:03Z</time>
      </trkpt>
      <trkpt lat="43.19324" lon="-1.35017">
        <ele>273.85</ele>
        <time>2026-09-02T11:57:26Z</time>
      </trkpt>
      <trkpt lat="43.1933" lon="-1.34995">
        <ele>272.29</ele>
        <time>2026-09-02T11:57:47Z</time>
      </trkpt>
      <trkpt lat="43.19335" lon="-1.34974">
        <ele>272.54</ele>
        <time>2026-09-02T11:58:04Z</time>
      </trkpt>
      <trkpt lat="43.19343" lon="-1.34958">
        <ele>271.92</ele>
        <time>2026-09-02T11:58:23Z</time>
      </trkpt>
      <trkpt lat="43.19354" lon="-1.34947">
        <ele>269.64</ele>
        <time>2026-09-02T11:58:42Z</time>
      </trkpt>
      <trkpt lat="43.19359" lon="-1.34943">
        <ele>268.5</ele>
        <time>2026-09-02T11:59:07Z</time>
      </trkpt>
      <trkpt lat="43.19366" lon="-1.34947">
        <ele>268.01</ele>
        <time>2026-09-02T11:59:37Z</time>
      </trkpt>
      <trkpt lat="43.19368" lon="-1.34947">
        <ele>268.09</ele>
        <time>2026-09-02T11:59:46Z</time>
      </trkpt>
      <trkpt lat="43.19362" lon="-1.34941">
        <ele>267.4</ele>
        <time>2026-09-02T12:00:09Z</time>
      </trkpt>
      <trkpt lat="43.19361" lon="-1.34943">
        <ele>267.59</ele>
        <time>2026-09-02T12:00:35Z</time>
      </trkpt>
      <trkpt lat="43.19368" lon="-1.34946">
        <ele>267.48</ele>
        <time>2026-09-02T12:00:52Z</time>
      </trkpt>
      <trkpt lat="43.19362" lon="-1.34943">
        <ele>267.12</ele>
        <time>2026-09-02T12:01:22Z</time>
      </trkpt>
      <trkpt lat="43.19358" lon="-1.34942">
        <ele>267.13</ele>
        <time>2026-09-02T12:01:52Z</time>
      </trkpt>
      <trkpt lat="43.19356" lon="-1.34944">
        <ele>266.9</ele>
        <time>2026-09-02T12:02:22Z</time>
      </trkpt>
      <trkpt lat="43.19359" lon="-1.34944">
        <ele>266.4</ele>
        <time>2026-09-02T12:02:54Z</time>
      </trkpt>
      <trkpt lat="43.19362" lon="-1.34944">
        <ele>266.03</ele>
        <time>2026-09-02T12:03:22Z</time>
      </trkpt>
      <trkpt lat="43.19364" lon="-1.34947">
        <ele>265.87</ele>
        <time>2026-09-02T12:03:54Z</time>
      </trkpt>
      <trkpt lat="43.19361" lon="-1.34947">
        <ele>265.48</ele>
        <time>2026-09-02T12:04:27Z</time>
      </trkpt>
      <trkpt lat="43.19357" lon="-1.34946">
        <ele>264.54</ele>
        <time>2026-09-02T12:05:02Z</time>
      </trkpt>
      <trkpt lat="43.1936" lon="-1.34943">
        <ele>263.88</ele>
        <time>2026-09-02T12:05:30Z</time>
      </trkpt>
      <trkpt lat="43.19362" lon="-1.34944">
        <ele>263.99</ele>
        <time>2026-09-02T12:06:01Z</time>
      </trkpt>
      <trkpt lat="43.19364" lon="-1.34942">
        <ele>263.6</ele>
        <time>2026-09-02T12:06:35Z</time>
      </trkpt>
      <trkpt lat="43.19361" lon="-1.34941">
        <ele>264.23</ele>
        <time>2026-09-02T12:07:03Z</time>
      </trkpt>
      <trkpt lat="43.19357" lon="-1.34942">
        <ele>263.19</ele>
        <time>2026-09-02T12:07:35Z</time>
      </trkpt>
      <trkpt lat="43.19358" lon="-1.34942">
        <ele>262.82</ele>
        <time>2026-09-02T12:08:01Z</time>
      </trkpt>
      <trkpt lat="43.19359" lon="-1.34945">
        <ele>262.47</ele>
        <time>2026-09-02T12:08:29Z</time>
      </trkpt>
    </trkseg>
  </trk>
</gpx>